<?xml version="1.0" encoding="UTF-8" standalone="no" ?>
<gpx xmlns="http://www.topografix.com/GPX/1/1" xmlns:xsi="http://www.w3.org/2001/XMLSchema-instance" xsi:schemaLocation="http://www.topografix.com/GPX/1/1 http://www.topografix.com/GPX/1/1/gpx.xsd" version="1.1" creator="VisuGPX - https://www.visugpx.com">
  <metadata>
    <name>12715077-VatilieuDépartStPaul</name>
  </metadata>
  <trk>
    <name><![CDATA[12715077-VatilieuDépartStPaul]]></name>
    <trkseg>
      <trkpt lat="45.31659" lon="5.42898">
        <ele>564</ele>
        <time>2021-03-20T16:53:51Z</time>
      </trkpt>
      <trkpt lat="45.31656" lon="5.42894">
        <ele>564</ele>
        <time>2021-03-20T16:53:52Z</time>
      </trkpt>
      <trkpt lat="45.31638" lon="5.4282">
        <ele>562</ele>
        <time>2021-03-20T16:54:05Z</time>
      </trkpt>
      <trkpt lat="45.31632" lon="5.42803">
        <ele>561</ele>
        <time>2021-03-20T16:54:08Z</time>
      </trkpt>
      <trkpt lat="45.31633" lon="5.42786">
        <ele>560</ele>
        <time>2021-03-20T16:54:11Z</time>
      </trkpt>
      <trkpt lat="45.31629" lon="5.42774">
        <ele>560</ele>
        <time>2021-03-20T16:54:13Z</time>
      </trkpt>
      <trkpt lat="45.31613" lon="5.42746">
        <ele>560</ele>
        <time>2021-03-20T16:54:19Z</time>
      </trkpt>
      <trkpt lat="45.31609" lon="5.42727">
        <ele>559</ele>
        <time>2021-03-20T16:54:22Z</time>
      </trkpt>
      <trkpt lat="45.31608" lon="5.42711">
        <ele>558</ele>
        <time>2021-03-20T16:54:25Z</time>
      </trkpt>
      <trkpt lat="45.31609" lon="5.42663">
        <ele>554</ele>
        <time>2021-03-20T16:54:33Z</time>
      </trkpt>
      <trkpt lat="45.31606" lon="5.4263">
        <ele>553</ele>
        <time>2021-03-20T16:54:38Z</time>
      </trkpt>
      <trkpt lat="45.31601" lon="5.42606">
        <ele>552</ele>
        <time>2021-03-20T16:54:42Z</time>
      </trkpt>
      <trkpt lat="45.31593" lon="5.42592">
        <ele>552</ele>
        <time>2021-03-20T16:54:45Z</time>
      </trkpt>
      <trkpt lat="45.31565" lon="5.42574">
        <ele>557</ele>
        <time>2021-03-20T16:54:52Z</time>
      </trkpt>
      <trkpt lat="45.31553" lon="5.4255">
        <ele>559</ele>
        <time>2021-03-20T16:54:57Z</time>
      </trkpt>
      <trkpt lat="45.31541" lon="5.42533">
        <ele>561</ele>
        <time>2021-03-20T16:55:01Z</time>
      </trkpt>
      <trkpt lat="45.31553" lon="5.4255">
        <ele>559</ele>
        <time>2021-03-20T16:55:05Z</time>
      </trkpt>
      <trkpt lat="45.31547" lon="5.42515">
        <ele>559</ele>
        <time>2021-03-20T16:55:11Z</time>
      </trkpt>
      <trkpt lat="45.31537" lon="5.42491">
        <ele>559</ele>
        <time>2021-03-20T16:55:16Z</time>
      </trkpt>
      <trkpt lat="45.31516" lon="5.42459">
        <ele>560</ele>
        <time>2021-03-20T16:55:23Z</time>
      </trkpt>
      <trkpt lat="45.31483" lon="5.42399">
        <ele>559</ele>
        <time>2021-03-20T16:55:35Z</time>
      </trkpt>
      <trkpt lat="45.31465" lon="5.42354">
        <ele>555</ele>
        <time>2021-03-20T16:55:44Z</time>
      </trkpt>
      <trkpt lat="45.31445" lon="5.42298">
        <ele>548</ele>
        <time>2021-03-20T16:55:54Z</time>
      </trkpt>
      <trkpt lat="45.31414" lon="5.42231">
        <ele>540</ele>
        <time>2021-03-20T16:56:07Z</time>
      </trkpt>
      <trkpt lat="45.31402" lon="5.42213">
        <ele>540</ele>
        <time>2021-03-20T16:56:11Z</time>
      </trkpt>
      <trkpt lat="45.31388" lon="5.42206">
        <ele>542</ele>
        <time>2021-03-20T16:56:15Z</time>
      </trkpt>
      <trkpt lat="45.31369" lon="5.42208">
        <ele>544</ele>
        <time>2021-03-20T16:56:19Z</time>
      </trkpt>
      <trkpt lat="45.31356" lon="5.42204">
        <ele>546</ele>
        <time>2021-03-20T16:56:22Z</time>
      </trkpt>
      <trkpt lat="45.31348" lon="5.42191">
        <ele>546</ele>
        <time>2021-03-20T16:56:25Z</time>
      </trkpt>
      <trkpt lat="45.31347" lon="5.42176">
        <ele>546</ele>
        <time>2021-03-20T16:56:28Z</time>
      </trkpt>
      <trkpt lat="45.31351" lon="5.42161">
        <ele>545</ele>
        <time>2021-03-20T16:56:30Z</time>
      </trkpt>
      <trkpt lat="45.31312" lon="5.42116">
        <ele>557</ele>
        <time>2021-03-20T16:56:42Z</time>
      </trkpt>
      <trkpt lat="45.31278" lon="5.42083">
        <ele>564</ele>
        <time>2021-03-20T16:56:52Z</time>
      </trkpt>
      <trkpt lat="45.31246" lon="5.42069">
        <ele>571</ele>
        <time>2021-03-20T16:56:59Z</time>
      </trkpt>
      <trkpt lat="45.3121" lon="5.42058">
        <ele>579</ele>
        <time>2021-03-20T16:57:08Z</time>
      </trkpt>
      <trkpt lat="45.31174" lon="5.42043">
        <ele>585</ele>
        <time>2021-03-20T16:57:17Z</time>
      </trkpt>
      <trkpt lat="45.31154" lon="5.42027">
        <ele>587</ele>
        <time>2021-03-20T16:57:22Z</time>
      </trkpt>
      <trkpt lat="45.31117" lon="5.42006">
        <ele>591</ele>
        <time>2021-03-20T16:57:31Z</time>
      </trkpt>
      <trkpt lat="45.31082" lon="5.4199">
        <ele>599</ele>
        <time>2021-03-20T16:57:40Z</time>
      </trkpt>
      <trkpt lat="45.31033" lon="5.41989">
        <ele>606</ele>
        <time>2021-03-20T16:57:52Z</time>
      </trkpt>
      <trkpt lat="45.31021" lon="5.41993">
        <ele>608</ele>
        <time>2021-03-20T16:57:54Z</time>
      </trkpt>
      <trkpt lat="45.30979" lon="5.41968">
        <ele>615</ele>
        <time>2021-03-20T16:58:05Z</time>
      </trkpt>
      <trkpt lat="45.30957" lon="5.41962">
        <ele>618</ele>
        <time>2021-03-20T16:58:10Z</time>
      </trkpt>
      <trkpt lat="45.30936" lon="5.41961">
        <ele>621</ele>
        <time>2021-03-20T16:58:15Z</time>
      </trkpt>
      <trkpt lat="45.30833" lon="5.41851">
        <ele>635</ele>
        <time>2021-03-20T16:58:45Z</time>
      </trkpt>
      <trkpt lat="45.30801" lon="5.41849">
        <ele>636</ele>
        <time>2021-03-20T16:58:53Z</time>
      </trkpt>
      <trkpt lat="45.30776" lon="5.41857">
        <ele>637</ele>
        <time>2021-03-20T16:58:59Z</time>
      </trkpt>
      <trkpt lat="45.30759" lon="5.41864">
        <ele>638</ele>
        <time>2021-03-20T16:59:03Z</time>
      </trkpt>
      <trkpt lat="45.3061" lon="5.41854">
        <ele>634</ele>
        <time>2021-03-20T16:59:38Z</time>
      </trkpt>
      <trkpt lat="45.30573" lon="5.41877">
        <ele>633</ele>
        <time>2021-03-20T16:59:47Z</time>
      </trkpt>
      <trkpt lat="45.30533" lon="5.4189">
        <ele>630</ele>
        <time>2021-03-20T16:59:57Z</time>
      </trkpt>
      <trkpt lat="45.30521" lon="5.41902">
        <ele>629</ele>
        <time>2021-03-20T17:00:00Z</time>
      </trkpt>
      <trkpt lat="45.30508" lon="5.41926">
        <ele>630</ele>
        <time>2021-03-20T17:00:05Z</time>
      </trkpt>
      <trkpt lat="45.30501" lon="5.41933">
        <ele>629</ele>
        <time>2021-03-20T17:00:07Z</time>
      </trkpt>
      <trkpt lat="45.30478" lon="5.41937">
        <ele>631</ele>
        <time>2021-03-20T17:00:13Z</time>
      </trkpt>
      <trkpt lat="45.30464" lon="5.41908">
        <ele>629</ele>
        <time>2021-03-20T17:00:18Z</time>
      </trkpt>
      <trkpt lat="45.30439" lon="5.41862">
        <ele>625</ele>
        <time>2021-03-20T17:00:28Z</time>
      </trkpt>
      <trkpt lat="45.30368" lon="5.41799">
        <ele>621</ele>
        <time>2021-03-20T17:00:47Z</time>
      </trkpt>
      <trkpt lat="45.30263" lon="5.41663">
        <ele>617</ele>
        <time>2021-03-20T17:01:21Z</time>
      </trkpt>
      <trkpt lat="45.30225" lon="5.4159">
        <ele>612</ele>
        <time>2021-03-20T17:01:35Z</time>
      </trkpt>
      <trkpt lat="45.30208" lon="5.41565">
        <ele>611</ele>
        <time>2021-03-20T17:01:41Z</time>
      </trkpt>
      <trkpt lat="45.30185" lon="5.41537">
        <ele>610</ele>
        <time>2021-03-20T17:01:48Z</time>
      </trkpt>
      <trkpt lat="45.30169" lon="5.41514">
        <ele>608</ele>
        <time>2021-03-20T17:01:54Z</time>
      </trkpt>
      <trkpt lat="45.30119" lon="5.41377">
        <ele>605</ele>
        <time>2021-03-20T17:02:19Z</time>
      </trkpt>
      <trkpt lat="45.30075" lon="5.41303">
        <ele>602</ele>
        <time>2021-03-20T17:02:35Z</time>
      </trkpt>
      <trkpt lat="45.30007" lon="5.41225">
        <ele>606</ele>
        <time>2021-03-20T17:02:55Z</time>
      </trkpt>
      <trkpt lat="45.29991" lon="5.41168">
        <ele>601</ele>
        <time>2021-03-20T17:03:05Z</time>
      </trkpt>
      <trkpt lat="45.29953" lon="5.41062">
        <ele>601</ele>
        <time>2021-03-20T17:03:25Z</time>
      </trkpt>
      <trkpt lat="45.29929" lon="5.41012">
        <ele>601</ele>
        <time>2021-03-20T17:03:35Z</time>
      </trkpt>
      <trkpt lat="45.2989" lon="5.40923">
        <ele>606</ele>
        <time>2021-03-20T17:03:52Z</time>
      </trkpt>
      <trkpt lat="45.29886" lon="5.40895">
        <ele>604</ele>
        <time>2021-03-20T17:03:57Z</time>
      </trkpt>
      <trkpt lat="45.2987" lon="5.40878">
        <ele>607</ele>
        <time>2021-03-20T17:04:01Z</time>
      </trkpt>
      <trkpt lat="45.29831" lon="5.40782">
        <ele>606</ele>
        <time>2021-03-20T17:04:20Z</time>
      </trkpt>
      <trkpt lat="45.29823" lon="5.40753">
        <ele>603</ele>
        <time>2021-03-20T17:04:25Z</time>
      </trkpt>
      <trkpt lat="45.29816" lon="5.40724">
        <ele>601</ele>
        <time>2021-03-20T17:04:30Z</time>
      </trkpt>
      <trkpt lat="45.2981" lon="5.40713">
        <ele>601</ele>
        <time>2021-03-20T17:04:32Z</time>
      </trkpt>
      <trkpt lat="45.29802" lon="5.40696">
        <ele>600</ele>
        <time>2021-03-20T17:04:35Z</time>
      </trkpt>
      <trkpt lat="45.29793" lon="5.40685">
        <ele>599</ele>
        <time>2021-03-20T17:04:38Z</time>
      </trkpt>
      <trkpt lat="45.29787" lon="5.40681">
        <ele>600</ele>
        <time>2021-03-20T17:04:40Z</time>
      </trkpt>
      <trkpt lat="45.2979" lon="5.40658">
        <ele>597</ele>
        <time>2021-03-20T17:04:44Z</time>
      </trkpt>
      <trkpt lat="45.29782" lon="5.40654">
        <ele>597</ele>
        <time>2021-03-20T17:04:46Z</time>
      </trkpt>
      <trkpt lat="45.29786" lon="5.40618">
        <ele>593</ele>
        <time>2021-03-20T17:04:52Z</time>
      </trkpt>
      <trkpt lat="45.29786" lon="5.40618">
        <ele>593</ele>
        <time>2021-03-20T17:04:52Z</time>
      </trkpt>
      <trkpt lat="45.29789" lon="5.40613">
        <ele>593</ele>
        <time>2021-03-20T17:04:53Z</time>
      </trkpt>
      <trkpt lat="45.2979" lon="5.40603">
        <ele>592</ele>
        <time>2021-03-20T17:04:54Z</time>
      </trkpt>
      <trkpt lat="45.29788" lon="5.40479">
        <ele>574</ele>
        <time>2021-03-20T17:05:15Z</time>
      </trkpt>
      <trkpt lat="45.29778" lon="5.40452">
        <ele>573</ele>
        <time>2021-03-20T17:05:20Z</time>
      </trkpt>
      <trkpt lat="45.29774" lon="5.40381">
        <ele>567</ele>
        <time>2021-03-20T17:05:31Z</time>
      </trkpt>
      <trkpt lat="45.29768" lon="5.40308">
        <ele>561</ele>
        <time>2021-03-20T17:05:43Z</time>
      </trkpt>
      <trkpt lat="45.29764" lon="5.40183">
        <ele>543</ele>
        <time>2021-03-20T17:06:04Z</time>
      </trkpt>
      <trkpt lat="45.29758" lon="5.40154">
        <ele>539</ele>
        <time>2021-03-20T17:06:09Z</time>
      </trkpt>
      <trkpt lat="45.2975" lon="5.40152">
        <ele>538</ele>
        <time>2021-03-20T17:06:11Z</time>
      </trkpt>
      <trkpt lat="45.29751" lon="5.40147">
        <ele>538</ele>
        <time>2021-03-20T17:06:12Z</time>
      </trkpt>
      <trkpt lat="45.29749" lon="5.4014">
        <ele>537</ele>
        <time>2021-03-20T17:06:13Z</time>
      </trkpt>
      <trkpt lat="45.29674" lon="5.40197">
        <ele>544</ele>
        <time>2021-03-20T17:06:33Z</time>
      </trkpt>
      <trkpt lat="45.29588" lon="5.4025">
        <ele>543</ele>
        <time>2021-03-20T17:06:55Z</time>
      </trkpt>
      <trkpt lat="45.29573" lon="5.40256">
        <ele>543</ele>
        <time>2021-03-20T17:06:58Z</time>
      </trkpt>
      <trkpt lat="45.29547" lon="5.40272">
        <ele>545</ele>
        <time>2021-03-20T17:07:05Z</time>
      </trkpt>
      <trkpt lat="45.29532" lon="5.40287">
        <ele>546</ele>
        <time>2021-03-20T17:07:09Z</time>
      </trkpt>
      <trkpt lat="45.29511" lon="5.40299">
        <ele>544</ele>
        <time>2021-03-20T17:07:15Z</time>
      </trkpt>
      <trkpt lat="45.29504" lon="5.40314">
        <ele>544</ele>
        <time>2021-03-20T17:07:17Z</time>
      </trkpt>
      <trkpt lat="45.29502" lon="5.4033">
        <ele>544</ele>
        <time>2021-03-20T17:07:20Z</time>
      </trkpt>
      <trkpt lat="45.29505" lon="5.40343">
        <ele>546</ele>
        <time>2021-03-20T17:07:22Z</time>
      </trkpt>
      <trkpt lat="45.29503" lon="5.40366">
        <ele>547</ele>
        <time>2021-03-20T17:07:26Z</time>
      </trkpt>
      <trkpt lat="45.29504" lon="5.40394">
        <ele>549</ele>
        <time>2021-03-20T17:07:31Z</time>
      </trkpt>
      <trkpt lat="45.29519" lon="5.40495">
        <ele>559</ele>
        <time>2021-03-20T17:07:48Z</time>
      </trkpt>
      <trkpt lat="45.29521" lon="5.40519">
        <ele>559</ele>
        <time>2021-03-20T17:07:52Z</time>
      </trkpt>
      <trkpt lat="45.2952" lon="5.40557">
        <ele>559</ele>
        <time>2021-03-20T17:07:58Z</time>
      </trkpt>
      <trkpt lat="45.29505" lon="5.407">
        <ele>557</ele>
        <time>2021-03-20T17:08:22Z</time>
      </trkpt>
      <trkpt lat="45.29509" lon="5.40771">
        <ele>561</ele>
        <time>2021-03-20T17:08:33Z</time>
      </trkpt>
      <trkpt lat="45.29513" lon="5.40801">
        <ele>562</ele>
        <time>2021-03-20T17:08:38Z</time>
      </trkpt>
      <trkpt lat="45.2954" lon="5.40906">
        <ele>573</ele>
        <time>2021-03-20T17:08:57Z</time>
      </trkpt>
      <trkpt lat="45.29546" lon="5.40957">
        <ele>576</ele>
        <time>2021-03-20T17:09:05Z</time>
      </trkpt>
      <trkpt lat="45.29576" lon="5.41116">
        <ele>579</ele>
        <time>2021-03-20T17:09:32Z</time>
      </trkpt>
      <trkpt lat="45.29612" lon="5.41335">
        <ele>595</ele>
        <time>2021-03-20T17:10:09Z</time>
      </trkpt>
      <trkpt lat="45.29619" lon="5.41399">
        <ele>597</ele>
        <time>2021-03-20T17:10:20Z</time>
      </trkpt>
      <trkpt lat="45.29624" lon="5.41524">
        <ele>599</ele>
        <time>2021-03-20T17:10:41Z</time>
      </trkpt>
      <trkpt lat="45.29623" lon="5.4158">
        <ele>602</ele>
        <time>2021-03-20T17:10:50Z</time>
      </trkpt>
      <trkpt lat="45.29624" lon="5.41628">
        <ele>606</ele>
        <time>2021-03-20T17:10:58Z</time>
      </trkpt>
      <trkpt lat="45.29619" lon="5.41688">
        <ele>608</ele>
        <time>2021-03-20T17:11:08Z</time>
      </trkpt>
      <trkpt lat="45.29604" lon="5.41766">
        <ele>605</ele>
        <time>2021-03-20T17:11:21Z</time>
      </trkpt>
      <trkpt lat="45.29589" lon="5.41814">
        <ele>602</ele>
        <time>2021-03-20T17:11:29Z</time>
      </trkpt>
      <trkpt lat="45.29573" lon="5.41844">
        <ele>602</ele>
        <time>2021-03-20T17:11:36Z</time>
      </trkpt>
      <trkpt lat="45.29567" lon="5.4185">
        <ele>602</ele>
        <time>2021-03-20T17:11:37Z</time>
      </trkpt>
      <trkpt lat="45.2956" lon="5.41851">
        <ele>603</ele>
        <time>2021-03-20T17:11:39Z</time>
      </trkpt>
      <trkpt lat="45.29524" lon="5.41846">
        <ele>604</ele>
        <time>2021-03-20T17:11:47Z</time>
      </trkpt>
      <trkpt lat="45.29521" lon="5.41841">
        <ele>604</ele>
        <time>2021-03-20T17:11:49Z</time>
      </trkpt>
      <trkpt lat="45.2952" lon="5.41831">
        <ele>605</ele>
        <time>2021-03-20T17:11:50Z</time>
      </trkpt>
      <trkpt lat="45.29526" lon="5.41814">
        <ele>606</ele>
        <time>2021-03-20T17:11:53Z</time>
      </trkpt>
      <trkpt lat="45.29533" lon="5.41803">
        <ele>605</ele>
        <time>2021-03-20T17:11:56Z</time>
      </trkpt>
      <trkpt lat="45.29556" lon="5.41742">
        <ele>603</ele>
        <time>2021-03-20T17:12:07Z</time>
      </trkpt>
      <trkpt lat="45.2956" lon="5.41722">
        <ele>603</ele>
        <time>2021-03-20T17:12:11Z</time>
      </trkpt>
      <trkpt lat="45.29561" lon="5.41701">
        <ele>603</ele>
        <time>2021-03-20T17:12:14Z</time>
      </trkpt>
      <trkpt lat="45.29557" lon="5.41665">
        <ele>604</ele>
        <time>2021-03-20T17:12:20Z</time>
      </trkpt>
      <trkpt lat="45.29558" lon="5.41638">
        <ele>601</ele>
        <time>2021-03-20T17:12:24Z</time>
      </trkpt>
      <trkpt lat="45.29553" lon="5.41574">
        <ele>596</ele>
        <time>2021-03-20T17:12:35Z</time>
      </trkpt>
      <trkpt lat="45.29541" lon="5.41533">
        <ele>594</ele>
        <time>2021-03-20T17:12:42Z</time>
      </trkpt>
      <trkpt lat="45.29507" lon="5.41524">
        <ele>599</ele>
        <time>2021-03-20T17:12:50Z</time>
      </trkpt>
      <trkpt lat="45.29424" lon="5.41472">
        <ele>611</ele>
        <time>2021-03-20T17:13:12Z</time>
      </trkpt>
      <trkpt lat="45.29424" lon="5.41472">
        <ele>611</ele>
        <time>2021-03-20T17:13:12Z</time>
      </trkpt>
      <trkpt lat="45.29304" lon="5.41463">
        <ele>629</ele>
        <time>2021-03-20T17:13:40Z</time>
      </trkpt>
      <trkpt lat="45.29309" lon="5.41464">
        <ele>628</ele>
        <time>2021-03-20T17:13:41Z</time>
      </trkpt>
      <trkpt lat="45.2931" lon="5.41457">
        <ele>628</ele>
        <time>2021-03-20T17:13:42Z</time>
      </trkpt>
      <trkpt lat="45.29359" lon="5.41405">
        <ele>622</ele>
        <time>2021-03-20T17:13:56Z</time>
      </trkpt>
      <trkpt lat="45.29381" lon="5.41392">
        <ele>619</ele>
        <time>2021-03-20T17:14:02Z</time>
      </trkpt>
      <trkpt lat="45.29376" lon="5.41385">
        <ele>620</ele>
        <time>2021-03-20T17:14:03Z</time>
      </trkpt>
      <trkpt lat="45.29347" lon="5.41393">
        <ele>625</ele>
        <time>2021-03-20T17:14:10Z</time>
      </trkpt>
      <trkpt lat="45.29317" lon="5.41393">
        <ele>632</ele>
        <time>2021-03-20T17:14:17Z</time>
      </trkpt>
      <trkpt lat="45.29295" lon="5.41402">
        <ele>637</ele>
        <time>2021-03-20T17:14:23Z</time>
      </trkpt>
      <trkpt lat="45.2927" lon="5.41417">
        <ele>642</ele>
        <time>2021-03-20T17:14:29Z</time>
      </trkpt>
      <trkpt lat="45.29252" lon="5.41433">
        <ele>645</ele>
        <time>2021-03-20T17:14:34Z</time>
      </trkpt>
      <trkpt lat="45.29227" lon="5.41465">
        <ele>647</ele>
        <time>2021-03-20T17:14:42Z</time>
      </trkpt>
      <trkpt lat="45.29211" lon="5.41476">
        <ele>649</ele>
        <time>2021-03-20T17:14:46Z</time>
      </trkpt>
      <trkpt lat="45.29171" lon="5.41483">
        <ele>656</ele>
        <time>2021-03-20T17:14:55Z</time>
      </trkpt>
      <trkpt lat="45.2916" lon="5.41479">
        <ele>658</ele>
        <time>2021-03-20T17:14:58Z</time>
      </trkpt>
      <trkpt lat="45.29152" lon="5.41484">
        <ele>658</ele>
        <time>2021-03-20T17:15:00Z</time>
      </trkpt>
      <trkpt lat="45.29146" lon="5.41483">
        <ele>658</ele>
        <time>2021-03-20T17:15:01Z</time>
      </trkpt>
      <trkpt lat="45.29144" lon="5.41477">
        <ele>659</ele>
        <time>2021-03-20T17:15:03Z</time>
      </trkpt>
      <trkpt lat="45.29164" lon="5.41461">
        <ele>660</ele>
        <time>2021-03-20T17:15:08Z</time>
      </trkpt>
      <trkpt lat="45.2918" lon="5.41443">
        <ele>660</ele>
        <time>2021-03-20T17:15:13Z</time>
      </trkpt>
      <trkpt lat="45.29191" lon="5.41419">
        <ele>661</ele>
        <time>2021-03-20T17:15:17Z</time>
      </trkpt>
      <trkpt lat="45.29203" lon="5.41369">
        <ele>662</ele>
        <time>2021-03-20T17:15:26Z</time>
      </trkpt>
      <trkpt lat="45.29204" lon="5.41349">
        <ele>663</ele>
        <time>2021-03-20T17:15:29Z</time>
      </trkpt>
      <trkpt lat="45.292" lon="5.41336">
        <ele>665</ele>
        <time>2021-03-20T17:15:32Z</time>
      </trkpt>
      <trkpt lat="45.29174" lon="5.41307">
        <ele>666</ele>
        <time>2021-03-20T17:15:39Z</time>
      </trkpt>
      <trkpt lat="45.29161" lon="5.41298">
        <ele>668</ele>
        <time>2021-03-20T17:15:43Z</time>
      </trkpt>
      <trkpt lat="45.29156" lon="5.413">
        <ele>669</ele>
        <time>2021-03-20T17:15:44Z</time>
      </trkpt>
      <trkpt lat="45.29152" lon="5.41307">
        <ele>670</ele>
        <time>2021-03-20T17:15:46Z</time>
      </trkpt>
      <trkpt lat="45.2915" lon="5.41323">
        <ele>673</ele>
        <time>2021-03-20T17:15:48Z</time>
      </trkpt>
      <trkpt lat="45.29145" lon="5.41339">
        <ele>674</ele>
        <time>2021-03-20T17:15:51Z</time>
      </trkpt>
      <trkpt lat="45.29137" lon="5.41351">
        <ele>675</ele>
        <time>2021-03-20T17:15:54Z</time>
      </trkpt>
      <trkpt lat="45.29131" lon="5.41351">
        <ele>676</ele>
        <time>2021-03-20T17:15:55Z</time>
      </trkpt>
      <trkpt lat="45.29112" lon="5.41329">
        <ele>680</ele>
        <time>2021-03-20T17:16:01Z</time>
      </trkpt>
      <trkpt lat="45.29106" lon="5.41327">
        <ele>681</ele>
        <time>2021-03-20T17:16:02Z</time>
      </trkpt>
      <trkpt lat="45.29057" lon="5.41337">
        <ele>689</ele>
        <time>2021-03-20T17:16:14Z</time>
      </trkpt>
      <trkpt lat="45.29017" lon="5.41342">
        <ele>696</ele>
        <time>2021-03-20T17:16:23Z</time>
      </trkpt>
      <trkpt lat="45.28991" lon="5.41353">
        <ele>699</ele>
        <time>2021-03-20T17:16:30Z</time>
      </trkpt>
      <trkpt lat="45.28962" lon="5.41382">
        <ele>700</ele>
        <time>2021-03-20T17:16:38Z</time>
      </trkpt>
      <trkpt lat="45.28919" lon="5.41412">
        <ele>706</ele>
        <time>2021-03-20T17:16:49Z</time>
      </trkpt>
      <trkpt lat="45.28875" lon="5.4145">
        <ele>711</ele>
        <time>2021-03-20T17:17:01Z</time>
      </trkpt>
      <trkpt lat="45.28855" lon="5.41477">
        <ele>715</ele>
        <time>2021-03-20T17:17:08Z</time>
      </trkpt>
      <trkpt lat="45.28811" lon="5.41511">
        <ele>723</ele>
        <time>2021-03-20T17:17:19Z</time>
      </trkpt>
      <trkpt lat="45.28797" lon="5.41515">
        <ele>725</ele>
        <time>2021-03-20T17:17:23Z</time>
      </trkpt>
      <trkpt lat="45.28726" lon="5.4157">
        <ele>733</ele>
        <time>2021-03-20T17:17:41Z</time>
      </trkpt>
      <trkpt lat="45.28722" lon="5.41533">
        <ele>733</ele>
        <time>2021-03-20T17:17:48Z</time>
      </trkpt>
      <trkpt lat="45.28717" lon="5.41514">
        <ele>734</ele>
        <time>2021-03-20T17:17:51Z</time>
      </trkpt>
      <trkpt lat="45.28713" lon="5.41508">
        <ele>734</ele>
        <time>2021-03-20T17:17:52Z</time>
      </trkpt>
      <trkpt lat="45.28702" lon="5.41505">
        <ele>735</ele>
        <time>2021-03-20T17:17:55Z</time>
      </trkpt>
      <trkpt lat="45.28646" lon="5.41527">
        <ele>741</ele>
        <time>2021-03-20T17:18:08Z</time>
      </trkpt>
      <trkpt lat="45.28631" lon="5.41527">
        <ele>743</ele>
        <time>2021-03-20T17:18:12Z</time>
      </trkpt>
      <trkpt lat="45.2861" lon="5.4152">
        <ele>745</ele>
        <time>2021-03-20T17:18:17Z</time>
      </trkpt>
      <trkpt lat="45.28573" lon="5.41496">
        <ele>746</ele>
        <time>2021-03-20T17:18:27Z</time>
      </trkpt>
      <trkpt lat="45.28529" lon="5.41419">
        <ele>747</ele>
        <time>2021-03-20T17:18:43Z</time>
      </trkpt>
      <trkpt lat="45.28509" lon="5.41397">
        <ele>750</ele>
        <time>2021-03-20T17:18:49Z</time>
      </trkpt>
      <trkpt lat="45.28434" lon="5.41348">
        <ele>758</ele>
        <time>2021-03-20T17:19:08Z</time>
      </trkpt>
      <trkpt lat="45.28416" lon="5.41338">
        <ele>761</ele>
        <time>2021-03-20T17:19:13Z</time>
      </trkpt>
      <trkpt lat="45.28368" lon="5.41307">
        <ele>763</ele>
        <time>2021-03-20T17:19:25Z</time>
      </trkpt>
      <trkpt lat="45.28304" lon="5.41275">
        <ele>770</ele>
        <time>2021-03-20T17:19:41Z</time>
      </trkpt>
      <trkpt lat="45.28285" lon="5.41273">
        <ele>771</ele>
        <time>2021-03-20T17:19:45Z</time>
      </trkpt>
      <trkpt lat="45.28236" lon="5.41287">
        <ele>772</ele>
        <time>2021-03-20T17:19:57Z</time>
      </trkpt>
      <trkpt lat="45.28197" lon="5.41306">
        <ele>769</ele>
        <time>2021-03-20T17:20:06Z</time>
      </trkpt>
      <trkpt lat="45.28165" lon="5.41314">
        <ele>767</ele>
        <time>2021-03-20T17:20:14Z</time>
      </trkpt>
      <trkpt lat="45.28125" lon="5.41304">
        <ele>766</ele>
        <time>2021-03-20T17:20:23Z</time>
      </trkpt>
      <trkpt lat="45.28097" lon="5.41293">
        <ele>764</ele>
        <time>2021-03-20T17:20:30Z</time>
      </trkpt>
      <trkpt lat="45.28025" lon="5.41283">
        <ele>764</ele>
        <time>2021-03-20T17:20:47Z</time>
      </trkpt>
      <trkpt lat="45.28003" lon="5.41272">
        <ele>765</ele>
        <time>2021-03-20T17:20:53Z</time>
      </trkpt>
      <trkpt lat="45.2797" lon="5.41267">
        <ele>767</ele>
        <time>2021-03-20T17:21:00Z</time>
      </trkpt>
      <trkpt lat="45.27941" lon="5.41268">
        <ele>769</ele>
        <time>2021-03-20T17:21:07Z</time>
      </trkpt>
      <trkpt lat="45.27931" lon="5.41264">
        <ele>770</ele>
        <time>2021-03-20T17:21:10Z</time>
      </trkpt>
      <trkpt lat="45.27907" lon="5.41267">
        <ele>771</ele>
        <time>2021-03-20T17:21:15Z</time>
      </trkpt>
      <trkpt lat="45.27885" lon="5.41283">
        <ele>770</ele>
        <time>2021-03-20T17:21:21Z</time>
      </trkpt>
      <trkpt lat="45.27856" lon="5.41312">
        <ele>766</ele>
        <time>2021-03-20T17:21:29Z</time>
      </trkpt>
      <trkpt lat="45.27817" lon="5.41362">
        <ele>756</ele>
        <time>2021-03-20T17:21:42Z</time>
      </trkpt>
      <trkpt lat="45.27763" lon="5.41412">
        <ele>746</ele>
        <time>2021-03-20T17:21:57Z</time>
      </trkpt>
      <trkpt lat="45.27738" lon="5.4145">
        <ele>741</ele>
        <time>2021-03-20T17:22:05Z</time>
      </trkpt>
      <trkpt lat="45.27727" lon="5.41487">
        <ele>736</ele>
        <time>2021-03-20T17:22:12Z</time>
      </trkpt>
      <trkpt lat="45.27733" lon="5.41528">
        <ele>730</ele>
        <time>2021-03-20T17:22:19Z</time>
      </trkpt>
      <trkpt lat="45.27751" lon="5.41582">
        <ele>726</ele>
        <time>2021-03-20T17:22:28Z</time>
      </trkpt>
      <trkpt lat="45.27764" lon="5.41635">
        <ele>723</ele>
        <time>2021-03-20T17:22:38Z</time>
      </trkpt>
      <trkpt lat="45.27784" lon="5.41733">
        <ele>715</ele>
        <time>2021-03-20T17:22:54Z</time>
      </trkpt>
      <trkpt lat="45.27817" lon="5.41828">
        <ele>710</ele>
        <time>2021-03-20T17:23:12Z</time>
      </trkpt>
      <trkpt lat="45.27823" lon="5.41881">
        <ele>705</ele>
        <time>2021-03-20T17:23:21Z</time>
      </trkpt>
      <trkpt lat="45.27822" lon="5.41901">
        <ele>702</ele>
        <time>2021-03-20T17:23:24Z</time>
      </trkpt>
      <trkpt lat="45.27819" lon="5.41916">
        <ele>700</ele>
        <time>2021-03-20T17:23:26Z</time>
      </trkpt>
      <trkpt lat="45.27798" lon="5.41941">
        <ele>697</ele>
        <time>2021-03-20T17:23:33Z</time>
      </trkpt>
      <trkpt lat="45.27767" lon="5.41988">
        <ele>692</ele>
        <time>2021-03-20T17:23:43Z</time>
      </trkpt>
      <trkpt lat="45.27737" lon="5.42023">
        <ele>690</ele>
        <time>2021-03-20T17:23:53Z</time>
      </trkpt>
      <trkpt lat="45.2769" lon="5.42066">
        <ele>687</ele>
        <time>2021-03-20T17:24:06Z</time>
      </trkpt>
      <trkpt lat="45.27634" lon="5.42086">
        <ele>681</ele>
        <time>2021-03-20T17:24:19Z</time>
      </trkpt>
      <trkpt lat="45.27597" lon="5.42095">
        <ele>676</ele>
        <time>2021-03-20T17:24:28Z</time>
      </trkpt>
      <trkpt lat="45.27578" lon="5.42106">
        <ele>674</ele>
        <time>2021-03-20T17:24:33Z</time>
      </trkpt>
      <trkpt lat="45.27446" lon="5.42208">
        <ele>667</ele>
        <time>2021-03-20T17:25:08Z</time>
      </trkpt>
      <trkpt lat="45.2743" lon="5.42218">
        <ele>667</ele>
        <time>2021-03-20T17:25:12Z</time>
      </trkpt>
      <trkpt lat="45.27409" lon="5.42227">
        <ele>665</ele>
        <time>2021-03-20T17:25:17Z</time>
      </trkpt>
      <trkpt lat="45.27409" lon="5.42239">
        <ele>668</ele>
        <time>2021-03-20T17:25:19Z</time>
      </trkpt>
      <trkpt lat="45.27407" lon="5.42243">
        <ele>669</ele>
        <time>2021-03-20T17:25:20Z</time>
      </trkpt>
      <trkpt lat="45.27377" lon="5.42272">
        <ele>668</ele>
        <time>2021-03-20T17:25:28Z</time>
      </trkpt>
      <trkpt lat="45.27373" lon="5.42279">
        <ele>669</ele>
        <time>2021-03-20T17:25:30Z</time>
      </trkpt>
      <trkpt lat="45.2737" lon="5.42287">
        <ele>670</ele>
        <time>2021-03-20T17:25:31Z</time>
      </trkpt>
      <trkpt lat="45.27332" lon="5.42341">
        <ele>671</ele>
        <time>2021-03-20T17:25:44Z</time>
      </trkpt>
      <trkpt lat="45.27313" lon="5.42383">
        <ele>672</ele>
        <time>2021-03-20T17:25:52Z</time>
      </trkpt>
      <trkpt lat="45.27308" lon="5.42389">
        <ele>672</ele>
        <time>2021-03-20T17:25:53Z</time>
      </trkpt>
      <trkpt lat="45.2728" lon="5.42399">
        <ele>671</ele>
        <time>2021-03-20T17:26:00Z</time>
      </trkpt>
      <trkpt lat="45.2725" lon="5.42402">
        <ele>670</ele>
        <time>2021-03-20T17:26:07Z</time>
      </trkpt>
      <trkpt lat="45.2722" lon="5.42397">
        <ele>669</ele>
        <time>2021-03-20T17:26:14Z</time>
      </trkpt>
      <trkpt lat="45.27199" lon="5.42382">
        <ele>667</ele>
        <time>2021-03-20T17:26:20Z</time>
      </trkpt>
      <trkpt lat="45.27184" lon="5.42365">
        <ele>664</ele>
        <time>2021-03-20T17:26:24Z</time>
      </trkpt>
      <trkpt lat="45.27168" lon="5.42354">
        <ele>662</ele>
        <time>2021-03-20T17:26:28Z</time>
      </trkpt>
      <trkpt lat="45.2712" lon="5.42353">
        <ele>654</ele>
        <time>2021-03-20T17:26:40Z</time>
      </trkpt>
      <trkpt lat="45.27109" lon="5.42349">
        <ele>652</ele>
        <time>2021-03-20T17:26:42Z</time>
      </trkpt>
      <trkpt lat="45.27098" lon="5.42351">
        <ele>650</ele>
        <time>2021-03-20T17:26:45Z</time>
      </trkpt>
      <trkpt lat="45.27086" lon="5.42361">
        <ele>650</ele>
        <time>2021-03-20T17:26:48Z</time>
      </trkpt>
      <trkpt lat="45.27062" lon="5.42397">
        <ele>649</ele>
        <time>2021-03-20T17:26:56Z</time>
      </trkpt>
      <trkpt lat="45.27056" lon="5.42403">
        <ele>647</ele>
        <time>2021-03-20T17:26:58Z</time>
      </trkpt>
      <trkpt lat="45.2704" lon="5.4241">
        <ele>643</ele>
        <time>2021-03-20T17:27:02Z</time>
      </trkpt>
      <trkpt lat="45.2702" lon="5.42428">
        <ele>638</ele>
        <time>2021-03-20T17:27:07Z</time>
      </trkpt>
      <trkpt lat="45.26959" lon="5.425">
        <ele>635</ele>
        <time>2021-03-20T17:27:26Z</time>
      </trkpt>
      <trkpt lat="45.26947" lon="5.4252">
        <ele>632</ele>
        <time>2021-03-20T17:27:30Z</time>
      </trkpt>
      <trkpt lat="45.26935" lon="5.42535">
        <ele>630</ele>
        <time>2021-03-20T17:27:34Z</time>
      </trkpt>
      <trkpt lat="45.26929" lon="5.42547">
        <ele>629</ele>
        <time>2021-03-20T17:27:36Z</time>
      </trkpt>
      <trkpt lat="45.26927" lon="5.42523">
        <ele>628</ele>
        <time>2021-03-20T17:27:40Z</time>
      </trkpt>
      <trkpt lat="45.26904" lon="5.42487">
        <ele>626</ele>
        <time>2021-03-20T17:27:48Z</time>
      </trkpt>
      <trkpt lat="45.26883" lon="5.42462">
        <ele>626</ele>
        <time>2021-03-20T17:27:55Z</time>
      </trkpt>
      <trkpt lat="45.26862" lon="5.42424">
        <ele>620</ele>
        <time>2021-03-20T17:28:03Z</time>
      </trkpt>
      <trkpt lat="45.26849" lon="5.42411">
        <ele>619</ele>
        <time>2021-03-20T17:28:06Z</time>
      </trkpt>
      <trkpt lat="45.26828" lon="5.42408">
        <ele>621</ele>
        <time>2021-03-20T17:28:11Z</time>
      </trkpt>
      <trkpt lat="45.26776" lon="5.42411">
        <ele>632</ele>
        <time>2021-03-20T17:28:23Z</time>
      </trkpt>
      <trkpt lat="45.26681" lon="5.42395">
        <ele>635</ele>
        <time>2021-03-20T17:28:46Z</time>
      </trkpt>
      <trkpt lat="45.26622" lon="5.42396">
        <ele>632</ele>
        <time>2021-03-20T17:29:00Z</time>
      </trkpt>
      <trkpt lat="45.26574" lon="5.42382">
        <ele>624</ele>
        <time>2021-03-20T17:29:11Z</time>
      </trkpt>
      <trkpt lat="45.26515" lon="5.42395">
        <ele>628</ele>
        <time>2021-03-20T17:29:25Z</time>
      </trkpt>
      <trkpt lat="45.26492" lon="5.42385">
        <ele>626</ele>
        <time>2021-03-20T17:29:31Z</time>
      </trkpt>
      <trkpt lat="45.26452" lon="5.42357">
        <ele>621</ele>
        <time>2021-03-20T17:29:41Z</time>
      </trkpt>
      <trkpt lat="45.26399" lon="5.42328">
        <ele>616</ele>
        <time>2021-03-20T17:29:54Z</time>
      </trkpt>
      <trkpt lat="45.26314" lon="5.42323">
        <ele>617</ele>
        <time>2021-03-20T17:30:14Z</time>
      </trkpt>
      <trkpt lat="45.26286" lon="5.42307">
        <ele>619</ele>
        <time>2021-03-20T17:30:21Z</time>
      </trkpt>
      <trkpt lat="45.26267" lon="5.42283">
        <ele>617</ele>
        <time>2021-03-20T17:30:27Z</time>
      </trkpt>
      <trkpt lat="45.26253" lon="5.42244">
        <ele>612</ele>
        <time>2021-03-20T17:30:34Z</time>
      </trkpt>
      <trkpt lat="45.26228" lon="5.42197">
        <ele>611</ele>
        <time>2021-03-20T17:30:44Z</time>
      </trkpt>
      <trkpt lat="45.26194" lon="5.42151">
        <ele>609</ele>
        <time>2021-03-20T17:30:55Z</time>
      </trkpt>
      <trkpt lat="45.26157" lon="5.42109">
        <ele>607</ele>
        <time>2021-03-20T17:31:06Z</time>
      </trkpt>
      <trkpt lat="45.26104" lon="5.42042">
        <ele>609</ele>
        <time>2021-03-20T17:31:23Z</time>
      </trkpt>
      <trkpt lat="45.26087" lon="5.42004">
        <ele>606</ele>
        <time>2021-03-20T17:31:30Z</time>
      </trkpt>
      <trkpt lat="45.26077" lon="5.41966">
        <ele>602</ele>
        <time>2021-03-20T17:31:37Z</time>
      </trkpt>
      <trkpt lat="45.26068" lon="5.41921">
        <ele>597</ele>
        <time>2021-03-20T17:31:44Z</time>
      </trkpt>
      <trkpt lat="45.26062" lon="5.41876">
        <ele>589</ele>
        <time>2021-03-20T17:31:52Z</time>
      </trkpt>
      <trkpt lat="45.26053" lon="5.41851">
        <ele>585</ele>
        <time>2021-03-20T17:31:56Z</time>
      </trkpt>
      <trkpt lat="45.26039" lon="5.41826">
        <ele>583</ele>
        <time>2021-03-20T17:32:02Z</time>
      </trkpt>
      <trkpt lat="45.26021" lon="5.41798">
        <ele>582</ele>
        <time>2021-03-20T17:32:08Z</time>
      </trkpt>
      <trkpt lat="45.25984" lon="5.41754">
        <ele>584</ele>
        <time>2021-03-20T17:32:19Z</time>
      </trkpt>
      <trkpt lat="45.25974" lon="5.41736">
        <ele>583</ele>
        <time>2021-03-20T17:32:23Z</time>
      </trkpt>
      <trkpt lat="45.25953" lon="5.4167">
        <ele>579</ele>
        <time>2021-03-20T17:32:35Z</time>
      </trkpt>
      <trkpt lat="45.25945" lon="5.41651">
        <ele>577</ele>
        <time>2021-03-20T17:32:39Z</time>
      </trkpt>
      <trkpt lat="45.25929" lon="5.41624">
        <ele>576</ele>
        <time>2021-03-20T17:32:44Z</time>
      </trkpt>
      <trkpt lat="45.25879" lon="5.41566">
        <ele>577</ele>
        <time>2021-03-20T17:32:59Z</time>
      </trkpt>
      <trkpt lat="45.25846" lon="5.41517">
        <ele>577</ele>
        <time>2021-03-20T17:33:11Z</time>
      </trkpt>
      <trkpt lat="45.25838" lon="5.41488">
        <ele>577</ele>
        <time>2021-03-20T17:33:16Z</time>
      </trkpt>
      <trkpt lat="45.25833" lon="5.41468">
        <ele>577</ele>
        <time>2021-03-20T17:33:19Z</time>
      </trkpt>
      <trkpt lat="45.25782" lon="5.41373">
        <ele>582</ele>
        <time>2021-03-20T17:33:39Z</time>
      </trkpt>
      <trkpt lat="45.25723" lon="5.41222">
        <ele>585</ele>
        <time>2021-03-20T17:34:07Z</time>
      </trkpt>
      <trkpt lat="45.25675" lon="5.41159">
        <ele>582</ele>
        <time>2021-03-20T17:34:22Z</time>
      </trkpt>
      <trkpt lat="45.25643" lon="5.41128">
        <ele>579</ele>
        <time>2021-03-20T17:34:32Z</time>
      </trkpt>
      <trkpt lat="45.25602" lon="5.41123">
        <ele>578</ele>
        <time>2021-03-20T17:34:41Z</time>
      </trkpt>
      <trkpt lat="45.25603" lon="5.41165">
        <ele>581</ele>
        <time>2021-03-20T17:34:48Z</time>
      </trkpt>
      <trkpt lat="45.2561" lon="5.41224">
        <ele>586</ele>
        <time>2021-03-20T17:34:58Z</time>
      </trkpt>
      <trkpt lat="45.25612" lon="5.41265">
        <ele>590</ele>
        <time>2021-03-20T17:35:05Z</time>
      </trkpt>
      <trkpt lat="45.25633" lon="5.41296">
        <ele>594</ele>
        <time>2021-03-20T17:35:12Z</time>
      </trkpt>
      <trkpt lat="45.25646" lon="5.4132">
        <ele>597</ele>
        <time>2021-03-20T17:35:17Z</time>
      </trkpt>
      <trkpt lat="45.25654" lon="5.41344">
        <ele>599</ele>
        <time>2021-03-20T17:35:21Z</time>
      </trkpt>
      <trkpt lat="45.25655" lon="5.41364">
        <ele>600</ele>
        <time>2021-03-20T17:35:24Z</time>
      </trkpt>
      <trkpt lat="45.25655" lon="5.41415">
        <ele>601</ele>
        <time>2021-03-20T17:35:33Z</time>
      </trkpt>
      <trkpt lat="45.25681" lon="5.41476">
        <ele>600</ele>
        <time>2021-03-20T17:35:44Z</time>
      </trkpt>
      <trkpt lat="45.25684" lon="5.41485">
        <ele>599</ele>
        <time>2021-03-20T17:35:46Z</time>
      </trkpt>
      <trkpt lat="45.25684" lon="5.41489">
        <ele>599</ele>
        <time>2021-03-20T17:35:47Z</time>
      </trkpt>
      <trkpt lat="45.25697" lon="5.41522">
        <ele>598</ele>
        <time>2021-03-20T17:35:53Z</time>
      </trkpt>
      <trkpt lat="45.25715" lon="5.41577">
        <ele>598</ele>
        <time>2021-03-20T17:36:03Z</time>
      </trkpt>
      <trkpt lat="45.25741" lon="5.4164">
        <ele>603</ele>
        <time>2021-03-20T17:36:15Z</time>
      </trkpt>
      <trkpt lat="45.25759" lon="5.41675">
        <ele>606</ele>
        <time>2021-03-20T17:36:22Z</time>
      </trkpt>
      <trkpt lat="45.25776" lon="5.41714">
        <ele>604</ele>
        <time>2021-03-20T17:36:30Z</time>
      </trkpt>
      <trkpt lat="45.25811" lon="5.41774">
        <ele>608</ele>
        <time>2021-03-20T17:36:42Z</time>
      </trkpt>
      <trkpt lat="45.25832" lon="5.41813">
        <ele>614</ele>
        <time>2021-03-20T17:36:50Z</time>
      </trkpt>
      <trkpt lat="45.25852" lon="5.41844">
        <ele>615</ele>
        <time>2021-03-20T17:36:57Z</time>
      </trkpt>
      <trkpt lat="45.25862" lon="5.41864">
        <ele>616</ele>
        <time>2021-03-20T17:37:01Z</time>
      </trkpt>
      <trkpt lat="45.25881" lon="5.4189">
        <ele>619</ele>
        <time>2021-03-20T17:37:08Z</time>
      </trkpt>
      <trkpt lat="45.25888" lon="5.41912">
        <ele>622</ele>
        <time>2021-03-20T17:37:12Z</time>
      </trkpt>
      <trkpt lat="45.25898" lon="5.4193">
        <ele>624</ele>
        <time>2021-03-20T17:37:15Z</time>
      </trkpt>
      <trkpt lat="45.25906" lon="5.41959">
        <ele>626</ele>
        <time>2021-03-20T17:37:20Z</time>
      </trkpt>
      <trkpt lat="45.2594" lon="5.42053">
        <ele>633</ele>
        <time>2021-03-20T17:37:38Z</time>
      </trkpt>
      <trkpt lat="45.25948" lon="5.42076">
        <ele>635</ele>
        <time>2021-03-20T17:37:42Z</time>
      </trkpt>
      <trkpt lat="45.25961" lon="5.421">
        <ele>638</ele>
        <time>2021-03-20T17:37:47Z</time>
      </trkpt>
      <trkpt lat="45.25969" lon="5.42122">
        <ele>641</ele>
        <time>2021-03-20T17:37:51Z</time>
      </trkpt>
      <trkpt lat="45.25975" lon="5.42147">
        <ele>645</ele>
        <time>2021-03-20T17:37:55Z</time>
      </trkpt>
      <trkpt lat="45.25986" lon="5.42174">
        <ele>650</ele>
        <time>2021-03-20T17:38:01Z</time>
      </trkpt>
      <trkpt lat="45.26004" lon="5.42232">
        <ele>657</ele>
        <time>2021-03-20T17:38:11Z</time>
      </trkpt>
      <trkpt lat="45.26067" lon="5.42336">
        <ele>663</ele>
        <time>2021-03-20T17:38:34Z</time>
      </trkpt>
      <trkpt lat="45.26121" lon="5.42474">
        <ele>666</ele>
        <time>2021-03-20T17:38:59Z</time>
      </trkpt>
      <trkpt lat="45.26167" lon="5.42547">
        <ele>674</ele>
        <time>2021-03-20T17:39:16Z</time>
      </trkpt>
      <trkpt lat="45.26203" lon="5.42587">
        <ele>679</ele>
        <time>2021-03-20T17:39:26Z</time>
      </trkpt>
      <trkpt lat="45.26298" lon="5.42638">
        <ele>688</ele>
        <time>2021-03-20T17:39:50Z</time>
      </trkpt>
      <trkpt lat="45.26372" lon="5.42626">
        <ele>687</ele>
        <time>2021-03-20T17:40:07Z</time>
      </trkpt>
      <trkpt lat="45.26424" lon="5.42646">
        <ele>687</ele>
        <time>2021-03-20T17:40:20Z</time>
      </trkpt>
      <trkpt lat="45.26468" lon="5.42667">
        <ele>686</ele>
        <time>2021-03-20T17:40:31Z</time>
      </trkpt>
      <trkpt lat="45.26514" lon="5.42684">
        <ele>686</ele>
        <time>2021-03-20T17:40:42Z</time>
      </trkpt>
      <trkpt lat="45.26583" lon="5.42677">
        <ele>700</ele>
        <time>2021-03-20T17:40:58Z</time>
      </trkpt>
      <trkpt lat="45.26627" lon="5.42659">
        <ele>698</ele>
        <time>2021-03-20T17:41:09Z</time>
      </trkpt>
      <trkpt lat="45.26701" lon="5.42644">
        <ele>689</ele>
        <time>2021-03-20T17:41:26Z</time>
      </trkpt>
      <trkpt lat="45.26712" lon="5.4265">
        <ele>687</ele>
        <time>2021-03-20T17:41:29Z</time>
      </trkpt>
      <trkpt lat="45.26772" lon="5.42705">
        <ele>670</ele>
        <time>2021-03-20T17:41:46Z</time>
      </trkpt>
      <trkpt lat="45.26801" lon="5.42764">
        <ele>656</ele>
        <time>2021-03-20T17:41:57Z</time>
      </trkpt>
      <trkpt lat="45.26808" lon="5.4278">
        <ele>652</ele>
        <time>2021-03-20T17:42:01Z</time>
      </trkpt>
      <trkpt lat="45.26818" lon="5.42785">
        <ele>649</ele>
        <time>2021-03-20T17:42:03Z</time>
      </trkpt>
      <trkpt lat="45.26885" lon="5.42757">
        <ele>638</ele>
        <time>2021-03-20T17:42:19Z</time>
      </trkpt>
      <trkpt lat="45.26914" lon="5.42731">
        <ele>633</ele>
        <time>2021-03-20T17:42:27Z</time>
      </trkpt>
      <trkpt lat="45.26929" lon="5.42661">
        <ele>630</ele>
        <time>2021-03-20T17:42:39Z</time>
      </trkpt>
      <trkpt lat="45.26939" lon="5.42655">
        <ele>629</ele>
        <time>2021-03-20T17:42:42Z</time>
      </trkpt>
      <trkpt lat="45.2695" lon="5.42655">
        <ele>629</ele>
        <time>2021-03-20T17:42:44Z</time>
      </trkpt>
      <trkpt lat="45.26968" lon="5.42653">
        <ele>628</ele>
        <time>2021-03-20T17:42:49Z</time>
      </trkpt>
      <trkpt lat="45.26975" lon="5.42655">
        <ele>627</ele>
        <time>2021-03-20T17:42:50Z</time>
      </trkpt>
      <trkpt lat="45.26998" lon="5.42668">
        <ele>623</ele>
        <time>2021-03-20T17:42:56Z</time>
      </trkpt>
      <trkpt lat="45.27012" lon="5.42673">
        <ele>626</ele>
        <time>2021-03-20T17:43:00Z</time>
      </trkpt>
      <trkpt lat="45.27033" lon="5.4267">
        <ele>632</ele>
        <time>2021-03-20T17:43:04Z</time>
      </trkpt>
      <trkpt lat="45.27038" lon="5.42676">
        <ele>632</ele>
        <time>2021-03-20T17:43:06Z</time>
      </trkpt>
      <trkpt lat="45.27048" lon="5.42703">
        <ele>629</ele>
        <time>2021-03-20T17:43:11Z</time>
      </trkpt>
      <trkpt lat="45.2706" lon="5.42718">
        <ele>628</ele>
        <time>2021-03-20T17:43:15Z</time>
      </trkpt>
      <trkpt lat="45.27068" lon="5.4272">
        <ele>629</ele>
        <time>2021-03-20T17:43:17Z</time>
      </trkpt>
      <trkpt lat="45.27097" lon="5.42714">
        <ele>637</ele>
        <time>2021-03-20T17:43:23Z</time>
      </trkpt>
      <trkpt lat="45.27103" lon="5.42718">
        <ele>638</ele>
        <time>2021-03-20T17:43:25Z</time>
      </trkpt>
      <trkpt lat="45.27111" lon="5.42747">
        <ele>633</ele>
        <time>2021-03-20T17:43:30Z</time>
      </trkpt>
      <trkpt lat="45.27128" lon="5.4277">
        <ele>633</ele>
        <time>2021-03-20T17:43:36Z</time>
      </trkpt>
      <trkpt lat="45.27159" lon="5.42838">
        <ele>627</ele>
        <time>2021-03-20T17:43:49Z</time>
      </trkpt>
      <trkpt lat="45.27167" lon="5.42849">
        <ele>626</ele>
        <time>2021-03-20T17:43:52Z</time>
      </trkpt>
      <trkpt lat="45.27175" lon="5.42853">
        <ele>626</ele>
        <time>2021-03-20T17:43:54Z</time>
      </trkpt>
      <trkpt lat="45.27186" lon="5.42851">
        <ele>627</ele>
        <time>2021-03-20T17:43:56Z</time>
      </trkpt>
      <trkpt lat="45.27205" lon="5.42837">
        <ele>635</ele>
        <time>2021-03-20T17:44:01Z</time>
      </trkpt>
      <trkpt lat="45.27223" lon="5.42832">
        <ele>639</ele>
        <time>2021-03-20T17:44:05Z</time>
      </trkpt>
      <trkpt lat="45.27236" lon="5.42835">
        <ele>639</ele>
        <time>2021-03-20T17:44:08Z</time>
      </trkpt>
      <trkpt lat="45.27251" lon="5.42838">
        <ele>640</ele>
        <time>2021-03-20T17:44:12Z</time>
      </trkpt>
      <trkpt lat="45.27317" lon="5.42807">
        <ele>634</ele>
        <time>2021-03-20T17:44:28Z</time>
      </trkpt>
      <trkpt lat="45.2736" lon="5.42775">
        <ele>628</ele>
        <time>2021-03-20T17:44:40Z</time>
      </trkpt>
      <trkpt lat="45.27374" lon="5.42757">
        <ele>626</ele>
        <time>2021-03-20T17:44:44Z</time>
      </trkpt>
      <trkpt lat="45.27377" lon="5.42722">
        <ele>629</ele>
        <time>2021-03-20T17:44:50Z</time>
      </trkpt>
      <trkpt lat="45.27369" lon="5.42647">
        <ele>640</ele>
        <time>2021-03-20T17:45:02Z</time>
      </trkpt>
      <trkpt lat="45.27374" lon="5.42629">
        <ele>642</ele>
        <time>2021-03-20T17:45:05Z</time>
      </trkpt>
      <trkpt lat="45.27386" lon="5.4262">
        <ele>641</ele>
        <time>2021-03-20T17:45:09Z</time>
      </trkpt>
      <trkpt lat="45.274" lon="5.42622">
        <ele>637</ele>
        <time>2021-03-20T17:45:12Z</time>
      </trkpt>
      <trkpt lat="45.27447" lon="5.42654">
        <ele>628</ele>
        <time>2021-03-20T17:45:24Z</time>
      </trkpt>
      <trkpt lat="45.27502" lon="5.42678">
        <ele>624</ele>
        <time>2021-03-20T17:45:37Z</time>
      </trkpt>
      <trkpt lat="45.27538" lon="5.42704">
        <ele>621</ele>
        <time>2021-03-20T17:45:47Z</time>
      </trkpt>
      <trkpt lat="45.27591" lon="5.42724">
        <ele>624</ele>
        <time>2021-03-20T17:46:00Z</time>
      </trkpt>
      <trkpt lat="45.27618" lon="5.42714">
        <ele>623</ele>
        <time>2021-03-20T17:46:06Z</time>
      </trkpt>
      <trkpt lat="45.27635" lon="5.42704">
        <ele>623</ele>
        <time>2021-03-20T17:46:11Z</time>
      </trkpt>
      <trkpt lat="45.27643" lon="5.42675">
        <ele>627</ele>
        <time>2021-03-20T17:46:16Z</time>
      </trkpt>
      <trkpt lat="45.27639" lon="5.42595">
        <ele>632</ele>
        <time>2021-03-20T17:46:29Z</time>
      </trkpt>
      <trkpt lat="45.27637" lon="5.4254">
        <ele>636</ele>
        <time>2021-03-20T17:46:38Z</time>
      </trkpt>
      <trkpt lat="45.2764" lon="5.42518">
        <ele>638</ele>
        <time>2021-03-20T17:46:42Z</time>
      </trkpt>
      <trkpt lat="45.2764" lon="5.4249">
        <ele>641</ele>
        <time>2021-03-20T17:46:46Z</time>
      </trkpt>
      <trkpt lat="45.27654" lon="5.42471">
        <ele>641</ele>
        <time>2021-03-20T17:46:51Z</time>
      </trkpt>
      <trkpt lat="45.27682" lon="5.42454">
        <ele>643</ele>
        <time>2021-03-20T17:46:58Z</time>
      </trkpt>
      <trkpt lat="45.27692" lon="5.42454">
        <ele>644</ele>
        <time>2021-03-20T17:47:00Z</time>
      </trkpt>
      <trkpt lat="45.27683" lon="5.42447">
        <ele>644</ele>
        <time>2021-03-20T17:47:03Z</time>
      </trkpt>
      <trkpt lat="45.27674" lon="5.42444">
        <ele>643</ele>
        <time>2021-03-20T17:47:05Z</time>
      </trkpt>
      <trkpt lat="45.27638" lon="5.42448">
        <ele>648</ele>
        <time>2021-03-20T17:47:13Z</time>
      </trkpt>
      <trkpt lat="45.27628" lon="5.42452">
        <ele>650</ele>
        <time>2021-03-20T17:47:16Z</time>
      </trkpt>
      <trkpt lat="45.2762" lon="5.42459">
        <ele>650</ele>
        <time>2021-03-20T17:47:18Z</time>
      </trkpt>
      <trkpt lat="45.27614" lon="5.42472">
        <ele>650</ele>
        <time>2021-03-20T17:47:20Z</time>
      </trkpt>
      <trkpt lat="45.27591" lon="5.42535">
        <ele>649</ele>
        <time>2021-03-20T17:47:32Z</time>
      </trkpt>
      <trkpt lat="45.27566" lon="5.42577">
        <ele>650</ele>
        <time>2021-03-20T17:47:41Z</time>
      </trkpt>
      <trkpt lat="45.2756" lon="5.42584">
        <ele>650</ele>
        <time>2021-03-20T17:47:43Z</time>
      </trkpt>
      <trkpt lat="45.2755" lon="5.42586">
        <ele>650</ele>
        <time>2021-03-20T17:47:45Z</time>
      </trkpt>
      <trkpt lat="45.27543" lon="5.42579">
        <ele>652</ele>
        <time>2021-03-20T17:47:47Z</time>
      </trkpt>
      <trkpt lat="45.27523" lon="5.4254">
        <ele>660</ele>
        <time>2021-03-20T17:47:55Z</time>
      </trkpt>
      <trkpt lat="45.27522" lon="5.42534">
        <ele>661</ele>
        <time>2021-03-20T17:47:56Z</time>
      </trkpt>
      <trkpt lat="45.27529" lon="5.42521">
        <ele>662</ele>
        <time>2021-03-20T17:47:59Z</time>
      </trkpt>
      <trkpt lat="45.27532" lon="5.4251">
        <ele>664</ele>
        <time>2021-03-20T17:48:01Z</time>
      </trkpt>
      <trkpt lat="45.27531" lon="5.42493">
        <ele>666</ele>
        <time>2021-03-20T17:48:04Z</time>
      </trkpt>
      <trkpt lat="45.27527" lon="5.42471">
        <ele>670</ele>
        <time>2021-03-20T17:48:07Z</time>
      </trkpt>
      <trkpt lat="45.27525" lon="5.4245">
        <ele>674</ele>
        <time>2021-03-20T17:48:11Z</time>
      </trkpt>
      <trkpt lat="45.27527" lon="5.42401">
        <ele>679</ele>
        <time>2021-03-20T17:48:19Z</time>
      </trkpt>
      <trkpt lat="45.27532" lon="5.42364">
        <ele>681</ele>
        <time>2021-03-20T17:48:25Z</time>
      </trkpt>
      <trkpt lat="45.27543" lon="5.42335">
        <ele>684</ele>
        <time>2021-03-20T17:48:30Z</time>
      </trkpt>
      <trkpt lat="45.27552" lon="5.42317">
        <ele>684</ele>
        <time>2021-03-20T17:48:34Z</time>
      </trkpt>
      <trkpt lat="45.27552" lon="5.42302">
        <ele>684</ele>
        <time>2021-03-20T17:48:37Z</time>
      </trkpt>
      <trkpt lat="45.27548" lon="5.42272">
        <ele>684</ele>
        <time>2021-03-20T17:48:42Z</time>
      </trkpt>
      <trkpt lat="45.27549" lon="5.4226">
        <ele>684</ele>
        <time>2021-03-20T17:48:44Z</time>
      </trkpt>
      <trkpt lat="45.27557" lon="5.42252">
        <ele>685</ele>
        <time>2021-03-20T17:48:46Z</time>
      </trkpt>
      <trkpt lat="45.27578" lon="5.42244">
        <ele>686</ele>
        <time>2021-03-20T17:48:51Z</time>
      </trkpt>
      <trkpt lat="45.27581" lon="5.4224">
        <ele>686</ele>
        <time>2021-03-20T17:48:52Z</time>
      </trkpt>
      <trkpt lat="45.27581" lon="5.42234">
        <ele>686</ele>
        <time>2021-03-20T17:48:53Z</time>
      </trkpt>
      <trkpt lat="45.2757" lon="5.42204">
        <ele>683</ele>
        <time>2021-03-20T17:48:58Z</time>
      </trkpt>
      <trkpt lat="45.27569" lon="5.42193">
        <ele>682</ele>
        <time>2021-03-20T17:49:00Z</time>
      </trkpt>
      <trkpt lat="45.27572" lon="5.42183">
        <ele>681</ele>
        <time>2021-03-20T17:49:02Z</time>
      </trkpt>
      <trkpt lat="45.27631" lon="5.42128">
        <ele>684</ele>
        <time>2021-03-20T17:49:18Z</time>
      </trkpt>
      <trkpt lat="45.27664" lon="5.42098">
        <ele>686</ele>
        <time>2021-03-20T17:49:28Z</time>
      </trkpt>
      <trkpt lat="45.27683" lon="5.42075">
        <ele>687</ele>
        <time>2021-03-20T17:49:33Z</time>
      </trkpt>
      <trkpt lat="45.2769" lon="5.42066">
        <ele>687</ele>
        <time>2021-03-20T17:49:36Z</time>
      </trkpt>
      <trkpt lat="45.27706" lon="5.42053">
        <ele>688</ele>
        <time>2021-03-20T17:49:40Z</time>
      </trkpt>
      <trkpt lat="45.27737" lon="5.42023">
        <ele>690</ele>
        <time>2021-03-20T17:49:49Z</time>
      </trkpt>
      <trkpt lat="45.27767" lon="5.41988">
        <ele>692</ele>
        <time>2021-03-20T17:49:58Z</time>
      </trkpt>
      <trkpt lat="45.27798" lon="5.41941">
        <ele>697</ele>
        <time>2021-03-20T17:50:08Z</time>
      </trkpt>
      <trkpt lat="45.27819" lon="5.41916">
        <ele>700</ele>
        <time>2021-03-20T17:50:15Z</time>
      </trkpt>
      <trkpt lat="45.27833" lon="5.41903">
        <ele>703</ele>
        <time>2021-03-20T17:50:19Z</time>
      </trkpt>
      <trkpt lat="45.27875" lon="5.41876">
        <ele>702</ele>
        <time>2021-03-20T17:50:29Z</time>
      </trkpt>
      <trkpt lat="45.27886" lon="5.41862">
        <ele>702</ele>
        <time>2021-03-20T17:50:33Z</time>
      </trkpt>
      <trkpt lat="45.27895" lon="5.4184">
        <ele>702</ele>
        <time>2021-03-20T17:50:37Z</time>
      </trkpt>
      <trkpt lat="45.27906" lon="5.41785">
        <ele>701</ele>
        <time>2021-03-20T17:50:46Z</time>
      </trkpt>
      <trkpt lat="45.27903" lon="5.41723">
        <ele>701</ele>
        <time>2021-03-20T17:50:57Z</time>
      </trkpt>
      <trkpt lat="45.27888" lon="5.41642">
        <ele>704</ele>
        <time>2021-03-20T17:51:10Z</time>
      </trkpt>
      <trkpt lat="45.2789" lon="5.41632">
        <ele>704</ele>
        <time>2021-03-20T17:51:12Z</time>
      </trkpt>
      <trkpt lat="45.27896" lon="5.41623">
        <ele>703</ele>
        <time>2021-03-20T17:51:14Z</time>
      </trkpt>
      <trkpt lat="45.27905" lon="5.41619">
        <ele>702</ele>
        <time>2021-03-20T17:51:16Z</time>
      </trkpt>
      <trkpt lat="45.27923" lon="5.41615">
        <ele>700</ele>
        <time>2021-03-20T17:51:21Z</time>
      </trkpt>
      <trkpt lat="45.27943" lon="5.41607">
        <ele>700</ele>
        <time>2021-03-20T17:51:25Z</time>
      </trkpt>
      <trkpt lat="45.27955" lon="5.41591">
        <ele>702</ele>
        <time>2021-03-20T17:51:29Z</time>
      </trkpt>
      <trkpt lat="45.27966" lon="5.41581">
        <ele>704</ele>
        <time>2021-03-20T17:51:32Z</time>
      </trkpt>
      <trkpt lat="45.27975" lon="5.41579">
        <ele>704</ele>
        <time>2021-03-20T17:51:35Z</time>
      </trkpt>
      <trkpt lat="45.28001" lon="5.41581">
        <ele>705</ele>
        <time>2021-03-20T17:51:41Z</time>
      </trkpt>
      <trkpt lat="45.28019" lon="5.41584">
        <ele>705</ele>
        <time>2021-03-20T17:51:45Z</time>
      </trkpt>
      <trkpt lat="45.28038" lon="5.41594">
        <ele>704</ele>
        <time>2021-03-20T17:51:50Z</time>
      </trkpt>
      <trkpt lat="45.28056" lon="5.41613">
        <ele>701</ele>
        <time>2021-03-20T17:51:55Z</time>
      </trkpt>
      <trkpt lat="45.28064" lon="5.41617">
        <ele>700</ele>
        <time>2021-03-20T17:51:57Z</time>
      </trkpt>
      <trkpt lat="45.2807" lon="5.41616">
        <ele>701</ele>
        <time>2021-03-20T17:51:58Z</time>
      </trkpt>
      <trkpt lat="45.28094" lon="5.41608">
        <ele>704</ele>
        <time>2021-03-20T17:52:04Z</time>
      </trkpt>
      <trkpt lat="45.28105" lon="5.41608">
        <ele>704</ele>
        <time>2021-03-20T17:52:07Z</time>
      </trkpt>
      <trkpt lat="45.28116" lon="5.41612">
        <ele>703</ele>
        <time>2021-03-20T17:52:09Z</time>
      </trkpt>
      <trkpt lat="45.28127" lon="5.41624">
        <ele>701</ele>
        <time>2021-03-20T17:52:12Z</time>
      </trkpt>
      <trkpt lat="45.28135" lon="5.41634">
        <ele>699</ele>
        <time>2021-03-20T17:52:15Z</time>
      </trkpt>
      <trkpt lat="45.28158" lon="5.41667">
        <ele>693</ele>
        <time>2021-03-20T17:52:23Z</time>
      </trkpt>
      <trkpt lat="45.28196" lon="5.41695">
        <ele>691</ele>
        <time>2021-03-20T17:52:33Z</time>
      </trkpt>
      <trkpt lat="45.28206" lon="5.41705">
        <ele>690</ele>
        <time>2021-03-20T17:52:35Z</time>
      </trkpt>
      <trkpt lat="45.28214" lon="5.41746">
        <ele>683</ele>
        <time>2021-03-20T17:52:42Z</time>
      </trkpt>
      <trkpt lat="45.28223" lon="5.418">
        <ele>672</ele>
        <time>2021-03-20T17:52:51Z</time>
      </trkpt>
      <trkpt lat="45.28229" lon="5.41807">
        <ele>672</ele>
        <time>2021-03-20T17:52:53Z</time>
      </trkpt>
      <trkpt lat="45.28252" lon="5.41804">
        <ele>675</ele>
        <time>2021-03-20T17:52:59Z</time>
      </trkpt>
      <trkpt lat="45.28324" lon="5.41784">
        <ele>670</ele>
        <time>2021-03-20T17:53:16Z</time>
      </trkpt>
      <trkpt lat="45.28349" lon="5.41789">
        <ele>671</ele>
        <time>2021-03-20T17:53:22Z</time>
      </trkpt>
      <trkpt lat="45.28349" lon="5.41848">
        <ele>660</ele>
        <time>2021-03-20T17:53:31Z</time>
      </trkpt>
      <trkpt lat="45.28361" lon="5.41912">
        <ele>660</ele>
        <time>2021-03-20T17:53:42Z</time>
      </trkpt>
      <trkpt lat="45.28353" lon="5.4195">
        <ele>658</ele>
        <time>2021-03-20T17:53:49Z</time>
      </trkpt>
      <trkpt lat="45.28349" lon="5.42001">
        <ele>658</ele>
        <time>2021-03-20T17:53:57Z</time>
      </trkpt>
      <trkpt lat="45.28353" lon="5.42047">
        <ele>658</ele>
        <time>2021-03-20T17:54:05Z</time>
      </trkpt>
      <trkpt lat="45.28363" lon="5.42106">
        <ele>660</ele>
        <time>2021-03-20T17:54:15Z</time>
      </trkpt>
      <trkpt lat="45.28365" lon="5.42131">
        <ele>659</ele>
        <time>2021-03-20T17:54:19Z</time>
      </trkpt>
      <trkpt lat="45.28363" lon="5.42149">
        <ele>656</ele>
        <time>2021-03-20T17:54:22Z</time>
      </trkpt>
      <trkpt lat="45.28366" lon="5.42192">
        <ele>652</ele>
        <time>2021-03-20T17:54:29Z</time>
      </trkpt>
      <trkpt lat="45.28371" lon="5.4221">
        <ele>651</ele>
        <time>2021-03-20T17:54:32Z</time>
      </trkpt>
      <trkpt lat="45.28379" lon="5.42219">
        <ele>651</ele>
        <time>2021-03-20T17:54:35Z</time>
      </trkpt>
      <trkpt lat="45.28387" lon="5.42219">
        <ele>654</ele>
        <time>2021-03-20T17:54:36Z</time>
      </trkpt>
      <trkpt lat="45.28428" lon="5.4221">
        <ele>667</ele>
        <time>2021-03-20T17:54:46Z</time>
      </trkpt>
      <trkpt lat="45.28451" lon="5.42201">
        <ele>674</ele>
        <time>2021-03-20T17:54:52Z</time>
      </trkpt>
      <trkpt lat="45.28463" lon="5.42201">
        <ele>676</ele>
        <time>2021-03-20T17:54:55Z</time>
      </trkpt>
      <trkpt lat="45.28468" lon="5.4221">
        <ele>676</ele>
        <time>2021-03-20T17:54:56Z</time>
      </trkpt>
      <trkpt lat="45.28466" lon="5.42267">
        <ele>671</ele>
        <time>2021-03-20T17:55:06Z</time>
      </trkpt>
      <trkpt lat="45.28472" lon="5.42297">
        <ele>673</ele>
        <time>2021-03-20T17:55:11Z</time>
      </trkpt>
      <trkpt lat="45.28485" lon="5.42333">
        <ele>680</ele>
        <time>2021-03-20T17:55:18Z</time>
      </trkpt>
      <trkpt lat="45.28485" lon="5.42347">
        <ele>682</ele>
        <time>2021-03-20T17:55:20Z</time>
      </trkpt>
      <trkpt lat="45.28483" lon="5.42356">
        <ele>682</ele>
        <time>2021-03-20T17:55:21Z</time>
      </trkpt>
      <trkpt lat="45.28475" lon="5.42373">
        <ele>679</ele>
        <time>2021-03-20T17:55:25Z</time>
      </trkpt>
      <trkpt lat="45.28453" lon="5.42412">
        <ele>671</ele>
        <time>2021-03-20T17:55:33Z</time>
      </trkpt>
      <trkpt lat="45.28443" lon="5.42435">
        <ele>666</ele>
        <time>2021-03-20T17:55:37Z</time>
      </trkpt>
      <trkpt lat="45.2844" lon="5.42449">
        <ele>665</ele>
        <time>2021-03-20T17:55:40Z</time>
      </trkpt>
      <trkpt lat="45.28439" lon="5.42489">
        <ele>666</ele>
        <time>2021-03-20T17:55:46Z</time>
      </trkpt>
      <trkpt lat="45.2845" lon="5.42526">
        <ele>670</ele>
        <time>2021-03-20T17:55:53Z</time>
      </trkpt>
      <trkpt lat="45.28455" lon="5.42567">
        <ele>672</ele>
        <time>2021-03-20T17:56:00Z</time>
      </trkpt>
      <trkpt lat="45.28452" lon="5.42586">
        <ele>671</ele>
        <time>2021-03-20T17:56:03Z</time>
      </trkpt>
      <trkpt lat="45.28445" lon="5.42605">
        <ele>672</ele>
        <time>2021-03-20T17:56:07Z</time>
      </trkpt>
      <trkpt lat="45.28434" lon="5.42624">
        <ele>672</ele>
        <time>2021-03-20T17:56:11Z</time>
      </trkpt>
      <trkpt lat="45.28399" lon="5.42671">
        <ele>670</ele>
        <time>2021-03-20T17:56:22Z</time>
      </trkpt>
      <trkpt lat="45.28391" lon="5.4269">
        <ele>670</ele>
        <time>2021-03-20T17:56:26Z</time>
      </trkpt>
      <trkpt lat="45.28376" lon="5.42737">
        <ele>672</ele>
        <time>2021-03-20T17:56:34Z</time>
      </trkpt>
      <trkpt lat="45.28369" lon="5.42755">
        <ele>672</ele>
        <time>2021-03-20T17:56:37Z</time>
      </trkpt>
      <trkpt lat="45.28364" lon="5.42768">
        <ele>672</ele>
        <time>2021-03-20T17:56:40Z</time>
      </trkpt>
      <trkpt lat="45.28342" lon="5.42799">
        <ele>670</ele>
        <time>2021-03-20T17:56:47Z</time>
      </trkpt>
      <trkpt lat="45.28319" lon="5.42842">
        <ele>669</ele>
        <time>2021-03-20T17:56:56Z</time>
      </trkpt>
      <trkpt lat="45.28321" lon="5.42845">
        <ele>669</ele>
        <time>2021-03-20T17:56:57Z</time>
      </trkpt>
      <trkpt lat="45.28324" lon="5.42846">
        <ele>670</ele>
        <time>2021-03-20T17:56:57Z</time>
      </trkpt>
      <trkpt lat="45.28341" lon="5.42839">
        <ele>676</ele>
        <time>2021-03-20T17:57:01Z</time>
      </trkpt>
      <trkpt lat="45.28368" lon="5.42839">
        <ele>681</ele>
        <time>2021-03-20T17:57:08Z</time>
      </trkpt>
      <trkpt lat="45.28385" lon="5.42832">
        <ele>685</ele>
        <time>2021-03-20T17:57:12Z</time>
      </trkpt>
      <trkpt lat="45.28397" lon="5.42825">
        <ele>686</ele>
        <time>2021-03-20T17:57:15Z</time>
      </trkpt>
      <trkpt lat="45.28438" lon="5.42789">
        <ele>695</ele>
        <time>2021-03-20T17:57:26Z</time>
      </trkpt>
      <trkpt lat="45.28447" lon="5.42784">
        <ele>697</ele>
        <time>2021-03-20T17:57:28Z</time>
      </trkpt>
      <trkpt lat="45.28463" lon="5.42779">
        <ele>702</ele>
        <time>2021-03-20T17:57:32Z</time>
      </trkpt>
      <trkpt lat="45.28469" lon="5.42777">
        <ele>703</ele>
        <time>2021-03-20T17:57:34Z</time>
      </trkpt>
      <trkpt lat="45.28499" lon="5.42775">
        <ele>711</ele>
        <time>2021-03-20T17:57:41Z</time>
      </trkpt>
      <trkpt lat="45.28517" lon="5.42776">
        <ele>714</ele>
        <time>2021-03-20T17:57:45Z</time>
      </trkpt>
      <trkpt lat="45.28536" lon="5.42803">
        <ele>714</ele>
        <time>2021-03-20T17:57:51Z</time>
      </trkpt>
      <trkpt lat="45.28552" lon="5.42832">
        <ele>714</ele>
        <time>2021-03-20T17:57:57Z</time>
      </trkpt>
      <trkpt lat="45.28566" lon="5.42865">
        <ele>715</ele>
        <time>2021-03-20T17:58:04Z</time>
      </trkpt>
      <trkpt lat="45.28578" lon="5.42911">
        <ele>717</ele>
        <time>2021-03-20T17:58:12Z</time>
      </trkpt>
      <trkpt lat="45.28601" lon="5.42957">
        <ele>721</ele>
        <time>2021-03-20T17:58:21Z</time>
      </trkpt>
      <trkpt lat="45.28607" lon="5.42973">
        <ele>723</ele>
        <time>2021-03-20T17:58:24Z</time>
      </trkpt>
      <trkpt lat="45.28607" lon="5.42996">
        <ele>725</ele>
        <time>2021-03-20T17:58:28Z</time>
      </trkpt>
      <trkpt lat="45.28604" lon="5.4302">
        <ele>726</ele>
        <time>2021-03-20T17:58:32Z</time>
      </trkpt>
      <trkpt lat="45.28596" lon="5.43065">
        <ele>728</ele>
        <time>2021-03-20T17:58:39Z</time>
      </trkpt>
      <trkpt lat="45.28612" lon="5.43137">
        <ele>732</ele>
        <time>2021-03-20T17:58:52Z</time>
      </trkpt>
      <trkpt lat="45.28619" lon="5.43182">
        <ele>733</ele>
        <time>2021-03-20T17:58:59Z</time>
      </trkpt>
      <trkpt lat="45.2862" lon="5.4321">
        <ele>733</ele>
        <time>2021-03-20T17:59:04Z</time>
      </trkpt>
      <trkpt lat="45.28632" lon="5.43254">
        <ele>731</ele>
        <time>2021-03-20T17:59:12Z</time>
      </trkpt>
      <trkpt lat="45.28642" lon="5.43276">
        <ele>730</ele>
        <time>2021-03-20T17:59:16Z</time>
      </trkpt>
      <trkpt lat="45.28658" lon="5.43289">
        <ele>729</ele>
        <time>2021-03-20T17:59:20Z</time>
      </trkpt>
      <trkpt lat="45.28675" lon="5.43287">
        <ele>728</ele>
        <time>2021-03-20T17:59:24Z</time>
      </trkpt>
      <trkpt lat="45.28702" lon="5.43265">
        <ele>727</ele>
        <time>2021-03-20T17:59:32Z</time>
      </trkpt>
      <trkpt lat="45.28727" lon="5.43255">
        <ele>726</ele>
        <time>2021-03-20T17:59:38Z</time>
      </trkpt>
      <trkpt lat="45.28735" lon="5.43253">
        <ele>726</ele>
        <time>2021-03-20T17:59:39Z</time>
      </trkpt>
      <trkpt lat="45.28766" lon="5.43244">
        <ele>726</ele>
        <time>2021-03-20T17:59:47Z</time>
      </trkpt>
      <trkpt lat="45.2887" lon="5.4317">
        <ele>734</ele>
        <time>2021-03-20T18:00:14Z</time>
      </trkpt>
      <trkpt lat="45.2889" lon="5.43159">
        <ele>736</ele>
        <time>2021-03-20T18:00:19Z</time>
      </trkpt>
      <trkpt lat="45.28941" lon="5.43144">
        <ele>740</ele>
        <time>2021-03-20T18:00:31Z</time>
      </trkpt>
      <trkpt lat="45.28991" lon="5.43116">
        <ele>742</ele>
        <time>2021-03-20T18:00:44Z</time>
      </trkpt>
      <trkpt lat="45.29014" lon="5.4311">
        <ele>743</ele>
        <time>2021-03-20T18:00:49Z</time>
      </trkpt>
      <trkpt lat="45.29034" lon="5.43113">
        <ele>744</ele>
        <time>2021-03-20T18:00:54Z</time>
      </trkpt>
      <trkpt lat="45.29082" lon="5.43127">
        <ele>749</ele>
        <time>2021-03-20T18:01:05Z</time>
      </trkpt>
      <trkpt lat="45.29096" lon="5.43135">
        <ele>748</ele>
        <time>2021-03-20T18:01:09Z</time>
      </trkpt>
      <trkpt lat="45.2912" lon="5.43151">
        <ele>749</ele>
        <time>2021-03-20T18:01:15Z</time>
      </trkpt>
      <trkpt lat="45.29153" lon="5.43195">
        <ele>749</ele>
        <time>2021-03-20T18:01:26Z</time>
      </trkpt>
      <trkpt lat="45.29169" lon="5.43236">
        <ele>752</ele>
        <time>2021-03-20T18:01:33Z</time>
      </trkpt>
      <trkpt lat="45.29179" lon="5.43279">
        <ele>752</ele>
        <time>2021-03-20T18:01:41Z</time>
      </trkpt>
      <trkpt lat="45.29183" lon="5.4332">
        <ele>751</ele>
        <time>2021-03-20T18:01:48Z</time>
      </trkpt>
      <trkpt lat="45.29201" lon="5.43388">
        <ele>747</ele>
        <time>2021-03-20T18:01:59Z</time>
      </trkpt>
      <trkpt lat="45.29226" lon="5.43434">
        <ele>742</ele>
        <time>2021-03-20T18:02:09Z</time>
      </trkpt>
      <trkpt lat="45.29237" lon="5.43461">
        <ele>739</ele>
        <time>2021-03-20T18:02:14Z</time>
      </trkpt>
      <trkpt lat="45.29252" lon="5.4348">
        <ele>737</ele>
        <time>2021-03-20T18:02:19Z</time>
      </trkpt>
      <trkpt lat="45.29259" lon="5.43498">
        <ele>734</ele>
        <time>2021-03-20T18:02:22Z</time>
      </trkpt>
      <trkpt lat="45.29264" lon="5.43534">
        <ele>728</ele>
        <time>2021-03-20T18:02:28Z</time>
      </trkpt>
      <trkpt lat="45.29286" lon="5.43574">
        <ele>718</ele>
        <time>2021-03-20T18:02:37Z</time>
      </trkpt>
      <trkpt lat="45.29295" lon="5.43593">
        <ele>714</ele>
        <time>2021-03-20T18:02:40Z</time>
      </trkpt>
      <trkpt lat="45.29299" lon="5.43615">
        <ele>709</ele>
        <time>2021-03-20T18:02:44Z</time>
      </trkpt>
      <trkpt lat="45.29317" lon="5.43681">
        <ele>698</ele>
        <time>2021-03-20T18:02:56Z</time>
      </trkpt>
      <trkpt lat="45.29323" lon="5.43726">
        <ele>694</ele>
        <time>2021-03-20T18:03:03Z</time>
      </trkpt>
      <trkpt lat="45.29329" lon="5.43751">
        <ele>692</ele>
        <time>2021-03-20T18:03:08Z</time>
      </trkpt>
      <trkpt lat="45.29339" lon="5.43766">
        <ele>691</ele>
        <time>2021-03-20T18:03:11Z</time>
      </trkpt>
      <trkpt lat="45.29362" lon="5.43783">
        <ele>692</ele>
        <time>2021-03-20T18:03:17Z</time>
      </trkpt>
      <trkpt lat="45.29364" lon="5.43784">
        <ele>692</ele>
        <time>2021-03-20T18:03:18Z</time>
      </trkpt>
      <trkpt lat="45.29374" lon="5.43788">
        <ele>693</ele>
        <time>2021-03-20T18:03:20Z</time>
      </trkpt>
      <trkpt lat="45.29369" lon="5.43814">
        <ele>692</ele>
        <time>2021-03-20T18:03:24Z</time>
      </trkpt>
      <trkpt lat="45.2936" lon="5.43906">
        <ele>687</ele>
        <time>2021-03-20T18:03:40Z</time>
      </trkpt>
      <trkpt lat="45.29364" lon="5.43977">
        <ele>679</ele>
        <time>2021-03-20T18:03:51Z</time>
      </trkpt>
      <trkpt lat="45.29358" lon="5.43996">
        <ele>677</ele>
        <time>2021-03-20T18:03:55Z</time>
      </trkpt>
      <trkpt lat="45.29351" lon="5.44008">
        <ele>674</ele>
        <time>2021-03-20T18:03:57Z</time>
      </trkpt>
      <trkpt lat="45.29338" lon="5.44021">
        <ele>672</ele>
        <time>2021-03-20T18:04:01Z</time>
      </trkpt>
      <trkpt lat="45.29326" lon="5.44026">
        <ele>668</ele>
        <time>2021-03-20T18:04:04Z</time>
      </trkpt>
      <trkpt lat="45.29335" lon="5.44029">
        <ele>670</ele>
        <time>2021-03-20T18:04:06Z</time>
      </trkpt>
      <trkpt lat="45.29359" lon="5.44017">
        <ele>672</ele>
        <time>2021-03-20T18:04:12Z</time>
      </trkpt>
      <trkpt lat="45.2938" lon="5.44005">
        <ele>674</ele>
        <time>2021-03-20T18:04:17Z</time>
      </trkpt>
      <trkpt lat="45.2941" lon="5.44">
        <ele>674</ele>
        <time>2021-03-20T18:04:24Z</time>
      </trkpt>
      <trkpt lat="45.29517" lon="5.44009">
        <ele>667</ele>
        <time>2021-03-20T18:04:49Z</time>
      </trkpt>
      <trkpt lat="45.29542" lon="5.44003">
        <ele>670</ele>
        <time>2021-03-20T18:04:55Z</time>
      </trkpt>
      <trkpt lat="45.29571" lon="5.43996">
        <ele>673</ele>
        <time>2021-03-20T18:05:02Z</time>
      </trkpt>
      <trkpt lat="45.29617" lon="5.44014">
        <ele>676</ele>
        <time>2021-03-20T18:05:13Z</time>
      </trkpt>
      <trkpt lat="45.29654" lon="5.44017">
        <ele>684</ele>
        <time>2021-03-20T18:05:22Z</time>
      </trkpt>
      <trkpt lat="45.29666" lon="5.44029">
        <ele>687</ele>
        <time>2021-03-20T18:05:25Z</time>
      </trkpt>
      <trkpt lat="45.29666" lon="5.44053">
        <ele>689</ele>
        <time>2021-03-20T18:05:29Z</time>
      </trkpt>
      <trkpt lat="45.2961" lon="5.44193">
        <ele>682</ele>
        <time>2021-03-20T18:05:56Z</time>
      </trkpt>
      <trkpt lat="45.29638" lon="5.4418">
        <ele>694</ele>
        <time>2021-03-20T18:06:03Z</time>
      </trkpt>
      <trkpt lat="45.29664" lon="5.44157">
        <ele>704</ele>
        <time>2021-03-20T18:06:10Z</time>
      </trkpt>
      <trkpt lat="45.29717" lon="5.44091">
        <ele>712</ele>
        <time>2021-03-20T18:06:26Z</time>
      </trkpt>
      <trkpt lat="45.29753" lon="5.44064">
        <ele>721</ele>
        <time>2021-03-20T18:06:36Z</time>
      </trkpt>
      <trkpt lat="45.29813" lon="5.44002">
        <ele>733</ele>
        <time>2021-03-20T18:06:53Z</time>
      </trkpt>
      <trkpt lat="45.29835" lon="5.43985">
        <ele>739</ele>
        <time>2021-03-20T18:06:59Z</time>
      </trkpt>
      <trkpt lat="45.29873" lon="5.43991">
        <ele>743</ele>
        <time>2021-03-20T18:07:08Z</time>
      </trkpt>
      <trkpt lat="45.2989" lon="5.44001">
        <ele>745</ele>
        <time>2021-03-20T18:07:12Z</time>
      </trkpt>
      <trkpt lat="45.29911" lon="5.44027">
        <ele>749</ele>
        <time>2021-03-20T18:07:19Z</time>
      </trkpt>
      <trkpt lat="45.29947" lon="5.44057">
        <ele>752</ele>
        <time>2021-03-20T18:07:28Z</time>
      </trkpt>
      <trkpt lat="45.29959" lon="5.44072">
        <ele>753</ele>
        <time>2021-03-20T18:07:32Z</time>
      </trkpt>
      <trkpt lat="45.29969" lon="5.44077">
        <ele>753</ele>
        <time>2021-03-20T18:07:35Z</time>
      </trkpt>
      <trkpt lat="45.29985" lon="5.44073">
        <ele>754</ele>
        <time>2021-03-20T18:07:38Z</time>
      </trkpt>
      <trkpt lat="45.30026" lon="5.44036">
        <ele>755</ele>
        <time>2021-03-20T18:07:50Z</time>
      </trkpt>
      <trkpt lat="45.30074" lon="5.44023">
        <ele>758</ele>
        <time>2021-03-20T18:08:01Z</time>
      </trkpt>
      <trkpt lat="45.30102" lon="5.43991">
        <ele>761</ele>
        <time>2021-03-20T18:08:10Z</time>
      </trkpt>
      <trkpt lat="45.30121" lon="5.43982">
        <ele>760</ele>
        <time>2021-03-20T18:08:14Z</time>
      </trkpt>
      <trkpt lat="45.30124" lon="5.43961">
        <ele>759</ele>
        <time>2021-03-20T18:08:18Z</time>
      </trkpt>
      <trkpt lat="45.30131" lon="5.43953">
        <ele>758</ele>
        <time>2021-03-20T18:08:20Z</time>
      </trkpt>
      <trkpt lat="45.30124" lon="5.43961">
        <ele>759</ele>
        <time>2021-03-20T18:08:22Z</time>
      </trkpt>
      <trkpt lat="45.3009" lon="5.43897">
        <ele>759</ele>
        <time>2021-03-20T18:08:35Z</time>
      </trkpt>
      <trkpt lat="45.30037" lon="5.43804">
        <ele>750</ele>
        <time>2021-03-20T18:08:55Z</time>
      </trkpt>
      <trkpt lat="45.30025" lon="5.43763">
        <ele>746</ele>
        <time>2021-03-20T18:09:02Z</time>
      </trkpt>
      <trkpt lat="45.3002" lon="5.43715">
        <ele>744</ele>
        <time>2021-03-20T18:09:10Z</time>
      </trkpt>
      <trkpt lat="45.30018" lon="5.43549">
        <ele>748</ele>
        <time>2021-03-20T18:09:37Z</time>
      </trkpt>
      <trkpt lat="45.30017" lon="5.43493">
        <ele>752</ele>
        <time>2021-03-20T18:09:47Z</time>
      </trkpt>
      <trkpt lat="45.30017" lon="5.43444">
        <ele>754</ele>
        <time>2021-03-20T18:09:55Z</time>
      </trkpt>
      <trkpt lat="45.30032" lon="5.43285">
        <ele>752</ele>
        <time>2021-03-20T18:10:21Z</time>
      </trkpt>
      <trkpt lat="45.30033" lon="5.43271">
        <ele>751</ele>
        <time>2021-03-20T18:10:23Z</time>
      </trkpt>
      <trkpt lat="45.3003" lon="5.43196">
        <ele>750</ele>
        <time>2021-03-20T18:10:36Z</time>
      </trkpt>
      <trkpt lat="45.3004" lon="5.43094">
        <ele>752</ele>
        <time>2021-03-20T18:10:53Z</time>
      </trkpt>
      <trkpt lat="45.30041" lon="5.43061">
        <ele>752</ele>
        <time>2021-03-20T18:10:58Z</time>
      </trkpt>
      <trkpt lat="45.3005" lon="5.43028">
        <ele>753</ele>
        <time>2021-03-20T18:11:04Z</time>
      </trkpt>
      <trkpt lat="45.30054" lon="5.42989">
        <ele>753</ele>
        <time>2021-03-20T18:11:10Z</time>
      </trkpt>
      <trkpt lat="45.30058" lon="5.42972">
        <ele>753</ele>
        <time>2021-03-20T18:11:13Z</time>
      </trkpt>
      <trkpt lat="45.30091" lon="5.42884">
        <ele>755</ele>
        <time>2021-03-20T18:11:30Z</time>
      </trkpt>
      <trkpt lat="45.30121" lon="5.42805">
        <ele>756</ele>
        <time>2021-03-20T18:11:44Z</time>
      </trkpt>
      <trkpt lat="45.30125" lon="5.42806">
        <ele>756</ele>
        <time>2021-03-20T18:11:45Z</time>
      </trkpt>
      <trkpt lat="45.30185" lon="5.42784">
        <ele>758</ele>
        <time>2021-03-20T18:12:00Z</time>
      </trkpt>
      <trkpt lat="45.30203" lon="5.42783">
        <ele>758</ele>
        <time>2021-03-20T18:12:04Z</time>
      </trkpt>
      <trkpt lat="45.30221" lon="5.42787">
        <ele>757</ele>
        <time>2021-03-20T18:12:08Z</time>
      </trkpt>
      <trkpt lat="45.30226" lon="5.4279">
        <ele>757</ele>
        <time>2021-03-20T18:12:10Z</time>
      </trkpt>
      <trkpt lat="45.30259" lon="5.42804">
        <ele>755</ele>
        <time>2021-03-20T18:12:18Z</time>
      </trkpt>
      <trkpt lat="45.3028" lon="5.42805">
        <ele>754</ele>
        <time>2021-03-20T18:12:22Z</time>
      </trkpt>
      <trkpt lat="45.30301" lon="5.42796">
        <ele>753</ele>
        <time>2021-03-20T18:12:28Z</time>
      </trkpt>
      <trkpt lat="45.30313" lon="5.42785">
        <ele>752</ele>
        <time>2021-03-20T18:12:31Z</time>
      </trkpt>
      <trkpt lat="45.30332" lon="5.42748">
        <ele>753</ele>
        <time>2021-03-20T18:12:38Z</time>
      </trkpt>
      <trkpt lat="45.30371" lon="5.42712">
        <ele>750</ele>
        <time>2021-03-20T18:12:49Z</time>
      </trkpt>
      <trkpt lat="45.30393" lon="5.42714">
        <ele>748</ele>
        <time>2021-03-20T18:12:54Z</time>
      </trkpt>
      <trkpt lat="45.30412" lon="5.42719">
        <ele>746</ele>
        <time>2021-03-20T18:12:59Z</time>
      </trkpt>
      <trkpt lat="45.30434" lon="5.42734">
        <ele>743</ele>
        <time>2021-03-20T18:13:05Z</time>
      </trkpt>
      <trkpt lat="45.30453" lon="5.42754">
        <ele>741</ele>
        <time>2021-03-20T18:13:10Z</time>
      </trkpt>
      <trkpt lat="45.30471" lon="5.42771">
        <ele>737</ele>
        <time>2021-03-20T18:13:15Z</time>
      </trkpt>
      <trkpt lat="45.3049" lon="5.42782">
        <ele>735</ele>
        <time>2021-03-20T18:13:20Z</time>
      </trkpt>
      <trkpt lat="45.30522" lon="5.42787">
        <ele>731</ele>
        <time>2021-03-20T18:13:28Z</time>
      </trkpt>
      <trkpt lat="45.30541" lon="5.42798">
        <ele>728</ele>
        <time>2021-03-20T18:13:32Z</time>
      </trkpt>
      <trkpt lat="45.30555" lon="5.42813">
        <ele>726</ele>
        <time>2021-03-20T18:13:36Z</time>
      </trkpt>
      <trkpt lat="45.30577" lon="5.42838">
        <ele>724</ele>
        <time>2021-03-20T18:13:43Z</time>
      </trkpt>
      <trkpt lat="45.30596" lon="5.42875">
        <ele>720</ele>
        <time>2021-03-20T18:13:51Z</time>
      </trkpt>
      <trkpt lat="45.30613" lon="5.429">
        <ele>720</ele>
        <time>2021-03-20T18:13:56Z</time>
      </trkpt>
      <trkpt lat="45.30631" lon="5.42921">
        <ele>721</ele>
        <time>2021-03-20T18:14:02Z</time>
      </trkpt>
      <trkpt lat="45.3065" lon="5.42937">
        <ele>721</ele>
        <time>2021-03-20T18:14:07Z</time>
      </trkpt>
      <trkpt lat="45.30682" lon="5.42948">
        <ele>722</ele>
        <time>2021-03-20T18:14:15Z</time>
      </trkpt>
      <trkpt lat="45.30701" lon="5.42953">
        <ele>721</ele>
        <time>2021-03-20T18:14:19Z</time>
      </trkpt>
      <trkpt lat="45.30757" lon="5.42956">
        <ele>720</ele>
        <time>2021-03-20T18:14:32Z</time>
      </trkpt>
      <trkpt lat="45.3079" lon="5.4297">
        <ele>718</ele>
        <time>2021-03-20T18:14:40Z</time>
      </trkpt>
      <trkpt lat="45.30799" lon="5.42985">
        <ele>716</ele>
        <time>2021-03-20T18:14:43Z</time>
      </trkpt>
      <trkpt lat="45.30808" lon="5.4301">
        <ele>713</ele>
        <time>2021-03-20T18:14:48Z</time>
      </trkpt>
      <trkpt lat="45.3082" lon="5.4308">
        <ele>702</ele>
        <time>2021-03-20T18:15:00Z</time>
      </trkpt>
      <trkpt lat="45.30832" lon="5.43126">
        <ele>695</ele>
        <time>2021-03-20T18:15:08Z</time>
      </trkpt>
      <trkpt lat="45.30859" lon="5.43173">
        <ele>686</ele>
        <time>2021-03-20T18:15:18Z</time>
      </trkpt>
      <trkpt lat="45.30885" lon="5.43213">
        <ele>680</ele>
        <time>2021-03-20T18:15:27Z</time>
      </trkpt>
      <trkpt lat="45.30895" lon="5.43221">
        <ele>679</ele>
        <time>2021-03-20T18:15:29Z</time>
      </trkpt>
      <trkpt lat="45.30908" lon="5.43225">
        <ele>680</ele>
        <time>2021-03-20T18:15:33Z</time>
      </trkpt>
      <trkpt lat="45.3093" lon="5.43212">
        <ele>679</ele>
        <time>2021-03-20T18:15:38Z</time>
      </trkpt>
      <trkpt lat="45.30944" lon="5.43196">
        <ele>678</ele>
        <time>2021-03-20T18:15:42Z</time>
      </trkpt>
      <trkpt lat="45.30954" lon="5.43173">
        <ele>676</ele>
        <time>2021-03-20T18:15:47Z</time>
      </trkpt>
      <trkpt lat="45.30989" lon="5.43115">
        <ele>669</ele>
        <time>2021-03-20T18:15:59Z</time>
      </trkpt>
      <trkpt lat="45.31017" lon="5.43084">
        <ele>663</ele>
        <time>2021-03-20T18:16:08Z</time>
      </trkpt>
      <trkpt lat="45.31055" lon="5.43036">
        <ele>663</ele>
        <time>2021-03-20T18:16:20Z</time>
      </trkpt>
      <trkpt lat="45.31082" lon="5.43026">
        <ele>661</ele>
        <time>2021-03-20T18:16:26Z</time>
      </trkpt>
      <trkpt lat="45.31096" lon="5.43029">
        <ele>658</ele>
        <time>2021-03-20T18:16:29Z</time>
      </trkpt>
      <trkpt lat="45.31114" lon="5.43038">
        <ele>654</ele>
        <time>2021-03-20T18:16:34Z</time>
      </trkpt>
      <trkpt lat="45.31141" lon="5.43044">
        <ele>648</ele>
        <time>2021-03-20T18:16:40Z</time>
      </trkpt>
      <trkpt lat="45.31176" lon="5.43039">
        <ele>643</ele>
        <time>2021-03-20T18:16:48Z</time>
      </trkpt>
      <trkpt lat="45.31237" lon="5.43039">
        <ele>632</ele>
        <time>2021-03-20T18:17:03Z</time>
      </trkpt>
      <trkpt lat="45.31256" lon="5.43021">
        <ele>634</ele>
        <time>2021-03-20T18:17:08Z</time>
      </trkpt>
      <trkpt lat="45.31279" lon="5.43009">
        <ele>632</ele>
        <time>2021-03-20T18:17:14Z</time>
      </trkpt>
      <trkpt lat="45.31314" lon="5.43018">
        <ele>621</ele>
        <time>2021-03-20T18:17:22Z</time>
      </trkpt>
      <trkpt lat="45.31324" lon="5.43019">
        <ele>619</ele>
        <time>2021-03-20T18:17:24Z</time>
      </trkpt>
      <trkpt lat="45.3139" lon="5.43005">
        <ele>607</ele>
        <time>2021-03-20T18:17:40Z</time>
      </trkpt>
      <trkpt lat="45.31412" lon="5.43003">
        <ele>602</ele>
        <time>2021-03-20T18:17:45Z</time>
      </trkpt>
      <trkpt lat="45.31431" lon="5.42997">
        <ele>600</ele>
        <time>2021-03-20T18:17:50Z</time>
      </trkpt>
      <trkpt lat="45.31446" lon="5.43001">
        <ele>595</ele>
        <time>2021-03-20T18:17:53Z</time>
      </trkpt>
      <trkpt lat="45.31461" lon="5.42997">
        <ele>593</ele>
        <time>2021-03-20T18:17:57Z</time>
      </trkpt>
      <trkpt lat="45.31492" lon="5.42997">
        <ele>585</ele>
        <time>2021-03-20T18:18:04Z</time>
      </trkpt>
      <trkpt lat="45.31539" lon="5.4298">
        <ele>579</ele>
        <time>2021-03-20T18:18:15Z</time>
      </trkpt>
      <trkpt lat="45.31561" lon="5.42985">
        <ele>575</ele>
        <time>2021-03-20T18:18:20Z</time>
      </trkpt>
      <trkpt lat="45.3158" lon="5.42967">
        <ele>572</ele>
        <time>2021-03-20T18:18:26Z</time>
      </trkpt>
      <trkpt lat="45.31595" lon="5.42936">
        <ele>571</ele>
        <time>2021-03-20T18:18:32Z</time>
      </trkpt>
      <trkpt lat="45.31612" lon="5.42924">
        <ele>570</ele>
        <time>2021-03-20T18:18:36Z</time>
      </trkpt>
      <trkpt lat="45.31637" lon="5.42916">
        <ele>567</ele>
        <time>2021-03-20T18:18:42Z</time>
      </trkpt>
      <trkpt lat="45.31643" lon="5.42886">
        <ele>565</ele>
        <time>2021-03-20T18:18:48Z</time>
      </trkpt>
      <trkpt lat="45.31651" lon="5.42875">
        <ele>563</ele>
        <time>2021-03-20T18:18:50Z</time>
      </trkpt>
      <trkpt lat="45.31656" lon="5.42894">
        <ele>564</ele>
        <time>2021-03-20T18:18:53Z</time>
      </trkpt>
      <trkpt lat="45.31659" lon="5.42898">
        <ele>564</ele>
        <time>2021-03-20T18:18:54Z</time>
      </trkpt>
    </trkseg>
  </trk>
</gpx>